<?xml version="1.0" encoding="UTF-8" standalone="no" ?>
<gpx xmlns="http://www.topografix.com/GPX/1/1" xmlns:xsi="http://www.w3.org/2001/XMLSchema-instance" xsi:schemaLocation="http://www.topografix.com/GPX/1/1 http://www.topografix.com/GPX/1/1/gpx.xsd" version="1.1" creator="VisuGPX - https://www.visugpx.com">
  <metadata>
    <name>SFL_Tour par la combe du loup_2013-08-09</name>
    <desc><![CDATA[SFL_Tour par la combe du loup_2013-08-09]]></desc>
  </metadata>
  <trk>
    <name><![CDATA[2013-08-09 17:03]]></name>
    <desc><![CDATA[<h1>OruxMaps</h1><br /><hr align="center" width="480" style="height: 2px; width: 517px"/><h2>Nom: 2013-08-09 17:03</h2><br /><p>Temps de départ: 08/09/2013 17:03</p><p>Temps d'arrivée: 08/09/2013 19:48</p><p>Distance: 14 km (02:44)</p><p>Temps déplacement: 01:55</p><p>Vitesse moyenne: 5,1 km/h</p><p>Vitesse moyenne: 7,3 km/h</p><p>Vitess Max.: 29,8 km/h</p><p>Altitude minimale: 1283 m</p><p>Altitude maximale: 1701 m</p><p>Vitesse d'élévation: 414,4 m/h</p><p>Vitesse de descente: -808,5 m/h</p><p>Gain Altitude: 557 m</p><p>Perte Altitude: -494 m</p><p>Temps d'élévation: 01:20</p><p>Temps de descente: 00:36</p><hr align="center" width="480" style="height: 2px; width: 517px"/>]]></desc>
    <trkseg>
      <trkpt lat="45.41798" lon="6.36255">
        <ele>1568.82</ele>
        <time>2013-08-09T15:03:47Z</time>
      </trkpt>
      <trkpt lat="45.41778" lon="6.36278">
        <ele>1574.16</ele>
        <time>2013-08-09T15:03:49Z</time>
      </trkpt>
      <trkpt lat="45.41736" lon="6.36229">
        <ele>1577.76</ele>
        <time>2013-08-09T15:05:24Z</time>
      </trkpt>
      <trkpt lat="45.41754" lon="6.36212">
        <ele>1585.25</ele>
        <time>2013-08-09T15:05:35Z</time>
      </trkpt>
      <trkpt lat="45.41771" lon="6.36226">
        <ele>1585.73</ele>
        <time>2013-08-09T15:05:44Z</time>
      </trkpt>
      <trkpt lat="45.41777" lon="6.36251">
        <ele>1585.76</ele>
        <time>2013-08-09T15:05:57Z</time>
      </trkpt>
      <trkpt lat="45.41781" lon="6.36277">
        <ele>1586.8</ele>
        <time>2013-08-09T15:06:10Z</time>
      </trkpt>
      <trkpt lat="45.41781" lon="6.36303">
        <ele>1587.97</ele>
        <time>2013-08-09T15:06:23Z</time>
      </trkpt>
      <trkpt lat="45.41775" lon="6.36327">
        <ele>1589.07</ele>
        <time>2013-08-09T15:06:36Z</time>
      </trkpt>
      <trkpt lat="45.41775" lon="6.36354">
        <ele>1590.72</ele>
        <time>2013-08-09T15:06:49Z</time>
      </trkpt>
      <trkpt lat="45.41769" lon="6.36381">
        <ele>1592.65</ele>
        <time>2013-08-09T15:07:01Z</time>
      </trkpt>
      <trkpt lat="45.41758" lon="6.36403">
        <ele>1593.45</ele>
        <time>2013-08-09T15:07:10Z</time>
      </trkpt>
      <trkpt lat="45.41768" lon="6.36425">
        <ele>1594.09</ele>
        <time>2013-08-09T15:07:18Z</time>
      </trkpt>
      <trkpt lat="45.41783" lon="6.3644">
        <ele>1594.69</ele>
        <time>2013-08-09T15:07:24Z</time>
      </trkpt>
      <trkpt lat="45.41799" lon="6.36453">
        <ele>1595.49</ele>
        <time>2013-08-09T15:07:30Z</time>
      </trkpt>
      <trkpt lat="45.41813" lon="6.36473">
        <ele>1596.37</ele>
        <time>2013-08-09T15:07:36Z</time>
      </trkpt>
      <trkpt lat="45.41799" lon="6.36491">
        <ele>1597.8</ele>
        <time>2013-08-09T15:07:50Z</time>
      </trkpt>
      <trkpt lat="45.4178" lon="6.36491">
        <ele>1599.37</ele>
        <time>2013-08-09T15:08:01Z</time>
      </trkpt>
      <trkpt lat="45.41762" lon="6.36495">
        <ele>1600.54</ele>
        <time>2013-08-09T15:08:11Z</time>
      </trkpt>
      <trkpt lat="45.41744" lon="6.36506">
        <ele>1601.58</ele>
        <time>2013-08-09T15:08:21Z</time>
      </trkpt>
      <trkpt lat="45.41729" lon="6.36492">
        <ele>1602.31</ele>
        <time>2013-08-09T15:08:28Z</time>
      </trkpt>
      <trkpt lat="45.41712" lon="6.36479">
        <ele>1603.28</ele>
        <time>2013-08-09T15:08:35Z</time>
      </trkpt>
      <trkpt lat="45.41694" lon="6.36481">
        <ele>1603.91</ele>
        <time>2013-08-09T15:08:41Z</time>
      </trkpt>
      <trkpt lat="45.41674" lon="6.36483">
        <ele>1605.78</ele>
        <time>2013-08-09T15:08:54Z</time>
      </trkpt>
      <trkpt lat="45.41656" lon="6.36484">
        <ele>1607.99</ele>
        <time>2013-08-09T15:09:08Z</time>
      </trkpt>
      <trkpt lat="45.41637" lon="6.36486">
        <ele>1610.11</ele>
        <time>2013-08-09T15:09:22Z</time>
      </trkpt>
      <trkpt lat="45.41619" lon="6.36491">
        <ele>1612.11</ele>
        <time>2013-08-09T15:09:36Z</time>
      </trkpt>
      <trkpt lat="45.416" lon="6.365">
        <ele>1614.08</ele>
        <time>2013-08-09T15:09:51Z</time>
      </trkpt>
      <trkpt lat="45.41582" lon="6.36507">
        <ele>1615.73</ele>
        <time>2013-08-09T15:10:04Z</time>
      </trkpt>
      <trkpt lat="45.41564" lon="6.36516">
        <ele>1617.15</ele>
        <time>2013-08-09T15:10:16Z</time>
      </trkpt>
      <trkpt lat="45.41548" lon="6.3653">
        <ele>1618.99</ele>
        <time>2013-08-09T15:10:30Z</time>
      </trkpt>
      <trkpt lat="45.4154" lon="6.36554">
        <ele>1620.79</ele>
        <time>2013-08-09T15:10:42Z</time>
      </trkpt>
      <trkpt lat="45.41531" lon="6.36576">
        <ele>1623.05</ele>
        <time>2013-08-09T15:10:55Z</time>
      </trkpt>
      <trkpt lat="45.41515" lon="6.36592">
        <ele>1626.05</ele>
        <time>2013-08-09T15:11:09Z</time>
      </trkpt>
      <trkpt lat="45.41497" lon="6.36602">
        <ele>1629</ele>
        <time>2013-08-09T15:11:24Z</time>
      </trkpt>
      <trkpt lat="45.4148" lon="6.36612">
        <ele>1631.21</ele>
        <time>2013-08-09T15:11:37Z</time>
      </trkpt>
      <trkpt lat="45.41462" lon="6.36621">
        <ele>1632.9</ele>
        <time>2013-08-09T15:11:49Z</time>
      </trkpt>
      <trkpt lat="45.41446" lon="6.36632">
        <ele>1634.36</ele>
        <time>2013-08-09T15:12:02Z</time>
      </trkpt>
      <trkpt lat="45.41427" lon="6.36636">
        <ele>1636.55</ele>
        <time>2013-08-09T15:12:19Z</time>
      </trkpt>
      <trkpt lat="45.41409" lon="6.36627">
        <ele>1638.05</ele>
        <time>2013-08-09T15:12:32Z</time>
      </trkpt>
      <trkpt lat="45.41399" lon="6.36605">
        <ele>1641.05</ele>
        <time>2013-08-09T15:12:47Z</time>
      </trkpt>
      <trkpt lat="45.41394" lon="6.3658">
        <ele>1643.6</ele>
        <time>2013-08-09T15:13:00Z</time>
      </trkpt>
      <trkpt lat="45.4138" lon="6.36562">
        <ele>1646.16</ele>
        <time>2013-08-09T15:13:13Z</time>
      </trkpt>
      <trkpt lat="45.41366" lon="6.36546">
        <ele>1647.77</ele>
        <time>2013-08-09T15:13:23Z</time>
      </trkpt>
      <trkpt lat="45.41347" lon="6.36554">
        <ele>1648.78</ele>
        <time>2013-08-09T15:13:33Z</time>
      </trkpt>
      <trkpt lat="45.41333" lon="6.36573">
        <ele>1649.42</ele>
        <time>2013-08-09T15:13:43Z</time>
      </trkpt>
      <trkpt lat="45.41319" lon="6.36553">
        <ele>1650.8</ele>
        <time>2013-08-09T15:14:15Z</time>
      </trkpt>
      <trkpt lat="45.41315" lon="6.36527">
        <ele>1651.46</ele>
        <time>2013-08-09T15:14:20Z</time>
      </trkpt>
      <trkpt lat="45.41301" lon="6.36509">
        <ele>1652.01</ele>
        <time>2013-08-09T15:14:29Z</time>
      </trkpt>
      <trkpt lat="45.41288" lon="6.3649">
        <ele>1652.48</ele>
        <time>2013-08-09T15:14:38Z</time>
      </trkpt>
      <trkpt lat="45.41275" lon="6.36468">
        <ele>1652.85</ele>
        <time>2013-08-09T15:14:47Z</time>
      </trkpt>
      <trkpt lat="45.4127" lon="6.36442">
        <ele>1653.05</ele>
        <time>2013-08-09T15:14:54Z</time>
      </trkpt>
      <trkpt lat="45.4126" lon="6.36418">
        <ele>1653.47</ele>
        <time>2013-08-09T15:15:03Z</time>
      </trkpt>
      <trkpt lat="45.4125" lon="6.36395">
        <ele>1653.79</ele>
        <time>2013-08-09T15:15:10Z</time>
      </trkpt>
      <trkpt lat="45.41239" lon="6.3637">
        <ele>1654.13</ele>
        <time>2013-08-09T15:15:18Z</time>
      </trkpt>
      <trkpt lat="45.41229" lon="6.36349">
        <ele>1654.7</ele>
        <time>2013-08-09T15:15:26Z</time>
      </trkpt>
      <trkpt lat="45.41216" lon="6.36328">
        <ele>1655.59</ele>
        <time>2013-08-09T15:15:37Z</time>
      </trkpt>
      <trkpt lat="45.41205" lon="6.36305">
        <ele>1656.25</ele>
        <time>2013-08-09T15:15:47Z</time>
      </trkpt>
      <trkpt lat="45.41198" lon="6.36281">
        <ele>1656.54</ele>
        <time>2013-08-09T15:15:52Z</time>
      </trkpt>
      <trkpt lat="45.41181" lon="6.36268">
        <ele>1657.08</ele>
        <time>2013-08-09T15:16:04Z</time>
      </trkpt>
      <trkpt lat="45.41165" lon="6.36256">
        <ele>1657.73</ele>
        <time>2013-08-09T15:16:17Z</time>
      </trkpt>
      <trkpt lat="45.41148" lon="6.36243">
        <ele>1658.61</ele>
        <time>2013-08-09T15:16:33Z</time>
      </trkpt>
      <trkpt lat="45.41132" lon="6.36229">
        <ele>1659.65</ele>
        <time>2013-08-09T15:16:47Z</time>
      </trkpt>
      <trkpt lat="45.41116" lon="6.36215">
        <ele>1660.81</ele>
        <time>2013-08-09T15:17:00Z</time>
      </trkpt>
      <trkpt lat="45.41103" lon="6.36194">
        <ele>1662.11</ele>
        <time>2013-08-09T15:17:14Z</time>
      </trkpt>
      <trkpt lat="45.41087" lon="6.3618">
        <ele>1663.68</ele>
        <time>2013-08-09T15:17:27Z</time>
      </trkpt>
      <trkpt lat="45.41073" lon="6.36163">
        <ele>1664.65</ele>
        <time>2013-08-09T15:17:40Z</time>
      </trkpt>
      <trkpt lat="45.41068" lon="6.36138">
        <ele>1665.62</ele>
        <time>2013-08-09T15:17:49Z</time>
      </trkpt>
      <trkpt lat="45.41057" lon="6.36116">
        <ele>1666.74</ele>
        <time>2013-08-09T15:17:58Z</time>
      </trkpt>
      <trkpt lat="45.41063" lon="6.36092">
        <ele>1668.33</ele>
        <time>2013-08-09T15:18:10Z</time>
      </trkpt>
      <trkpt lat="45.41057" lon="6.36063">
        <ele>1668.56</ele>
        <time>2013-08-09T15:18:15Z</time>
      </trkpt>
      <trkpt lat="45.41051" lon="6.36037">
        <ele>1668.54</ele>
        <time>2013-08-09T15:18:23Z</time>
      </trkpt>
      <trkpt lat="45.41041" lon="6.36016">
        <ele>1668.86</ele>
        <time>2013-08-09T15:18:32Z</time>
      </trkpt>
      <trkpt lat="45.41028" lon="6.35995">
        <ele>1669.26</ele>
        <time>2013-08-09T15:18:44Z</time>
      </trkpt>
      <trkpt lat="45.41012" lon="6.35981">
        <ele>1670.12</ele>
        <time>2013-08-09T15:18:58Z</time>
      </trkpt>
      <trkpt lat="45.40992" lon="6.35976">
        <ele>1671.55</ele>
        <time>2013-08-09T15:19:10Z</time>
      </trkpt>
      <trkpt lat="45.40974" lon="6.35972">
        <ele>1672.52</ele>
        <time>2013-08-09T15:19:21Z</time>
      </trkpt>
      <trkpt lat="45.40956" lon="6.35971">
        <ele>1674</ele>
        <time>2013-08-09T15:19:35Z</time>
      </trkpt>
      <trkpt lat="45.40939" lon="6.35957">
        <ele>1675.13</ele>
        <time>2013-08-09T15:19:47Z</time>
      </trkpt>
      <trkpt lat="45.40929" lon="6.35935">
        <ele>1676.45</ele>
        <time>2013-08-09T15:19:59Z</time>
      </trkpt>
      <trkpt lat="45.40913" lon="6.3592">
        <ele>1677.97</ele>
        <time>2013-08-09T15:20:12Z</time>
      </trkpt>
      <trkpt lat="45.40896" lon="6.3591">
        <ele>1678.77</ele>
        <time>2013-08-09T15:20:21Z</time>
      </trkpt>
      <trkpt lat="45.40878" lon="6.35902">
        <ele>1679.41</ele>
        <time>2013-08-09T15:20:26Z</time>
      </trkpt>
      <trkpt lat="45.40855" lon="6.359">
        <ele>1680.76</ele>
        <time>2013-08-09T15:20:31Z</time>
      </trkpt>
      <trkpt lat="45.40833" lon="6.35897">
        <ele>1682.99</ele>
        <time>2013-08-09T15:20:35Z</time>
      </trkpt>
      <trkpt lat="45.40816" lon="6.35883">
        <ele>1683.54</ele>
        <time>2013-08-09T15:20:38Z</time>
      </trkpt>
      <trkpt lat="45.40804" lon="6.35858">
        <ele>1682.95</ele>
        <time>2013-08-09T15:20:41Z</time>
      </trkpt>
      <trkpt lat="45.40795" lon="6.35834">
        <ele>1680.66</ele>
        <time>2013-08-09T15:20:45Z</time>
      </trkpt>
      <trkpt lat="45.408" lon="6.35808">
        <ele>1679.53</ele>
        <time>2013-08-09T15:20:55Z</time>
      </trkpt>
      <trkpt lat="45.40804" lon="6.35781">
        <ele>1680.53</ele>
        <time>2013-08-09T15:21:03Z</time>
      </trkpt>
      <trkpt lat="45.40802" lon="6.35755">
        <ele>1682.42</ele>
        <time>2013-08-09T15:21:14Z</time>
      </trkpt>
      <trkpt lat="45.40808" lon="6.3573">
        <ele>1684.25</ele>
        <time>2013-08-09T15:21:29Z</time>
      </trkpt>
      <trkpt lat="45.40809" lon="6.35704">
        <ele>1686.17</ele>
        <time>2013-08-09T15:21:58Z</time>
      </trkpt>
      <trkpt lat="45.40808" lon="6.35678">
        <ele>1687.7</ele>
        <time>2013-08-09T15:22:10Z</time>
      </trkpt>
      <trkpt lat="45.40804" lon="6.35653">
        <ele>1689.61</ele>
        <time>2013-08-09T15:22:22Z</time>
      </trkpt>
      <trkpt lat="45.40796" lon="6.35627">
        <ele>1691.42</ele>
        <time>2013-08-09T15:22:35Z</time>
      </trkpt>
      <trkpt lat="45.40785" lon="6.35605">
        <ele>1693.32</ele>
        <time>2013-08-09T15:22:48Z</time>
      </trkpt>
      <trkpt lat="45.40772" lon="6.35585">
        <ele>1695.32</ele>
        <time>2013-08-09T15:23:02Z</time>
      </trkpt>
      <trkpt lat="45.40758" lon="6.35568">
        <ele>1697.14</ele>
        <time>2013-08-09T15:23:14Z</time>
      </trkpt>
      <trkpt lat="45.4074" lon="6.35557">
        <ele>1698.58</ele>
        <time>2013-08-09T15:23:25Z</time>
      </trkpt>
      <trkpt lat="45.40718" lon="6.35557">
        <ele>1699.29</ele>
        <time>2013-08-09T15:23:32Z</time>
      </trkpt>
      <trkpt lat="45.40699" lon="6.35563">
        <ele>1699.84</ele>
        <time>2013-08-09T15:23:37Z</time>
      </trkpt>
      <trkpt lat="45.4068" lon="6.35568">
        <ele>1700.72</ele>
        <time>2013-08-09T15:23:43Z</time>
      </trkpt>
      <trkpt lat="45.40662" lon="6.35569">
        <ele>1701.54</ele>
        <time>2013-08-09T15:23:48Z</time>
      </trkpt>
      <trkpt lat="45.4064" lon="6.35564">
        <ele>1701.92</ele>
        <time>2013-08-09T15:23:52Z</time>
      </trkpt>
      <trkpt lat="45.4062" lon="6.35545">
        <ele>1700.96</ele>
        <time>2013-08-09T15:23:55Z</time>
      </trkpt>
      <trkpt lat="45.40596" lon="6.35535">
        <ele>1699.41</ele>
        <time>2013-08-09T15:23:58Z</time>
      </trkpt>
      <trkpt lat="45.40575" lon="6.35533">
        <ele>1697.96</ele>
        <time>2013-08-09T15:24:01Z</time>
      </trkpt>
      <trkpt lat="45.40555" lon="6.35527">
        <ele>1698.13</ele>
        <time>2013-08-09T15:24:05Z</time>
      </trkpt>
      <trkpt lat="45.40541" lon="6.35509">
        <ele>1698.78</ele>
        <time>2013-08-09T15:24:09Z</time>
      </trkpt>
      <trkpt lat="45.40526" lon="6.3549">
        <ele>1698.54</ele>
        <time>2013-08-09T15:24:14Z</time>
      </trkpt>
      <trkpt lat="45.40509" lon="6.35478">
        <ele>1698.81</ele>
        <time>2013-08-09T15:24:25Z</time>
      </trkpt>
      <trkpt lat="45.40488" lon="6.35477">
        <ele>1700.53</ele>
        <time>2013-08-09T15:25:29Z</time>
      </trkpt>
      <trkpt lat="45.40473" lon="6.35495">
        <ele>1700.67</ele>
        <time>2013-08-09T15:25:36Z</time>
      </trkpt>
      <trkpt lat="45.40459" lon="6.35513">
        <ele>1700.45</ele>
        <time>2013-08-09T15:25:40Z</time>
      </trkpt>
      <trkpt lat="45.40445" lon="6.35535">
        <ele>1699.85</ele>
        <time>2013-08-09T15:25:46Z</time>
      </trkpt>
      <trkpt lat="45.40433" lon="6.35564">
        <ele>1697.38</ele>
        <time>2013-08-09T15:25:51Z</time>
      </trkpt>
      <trkpt lat="45.40417" lon="6.35577">
        <ele>1693.73</ele>
        <time>2013-08-09T15:25:58Z</time>
      </trkpt>
      <trkpt lat="45.40398" lon="6.35575">
        <ele>1692.64</ele>
        <time>2013-08-09T15:26:05Z</time>
      </trkpt>
      <trkpt lat="45.40401" lon="6.35549">
        <ele>1691</ele>
        <time>2013-08-09T15:26:13Z</time>
      </trkpt>
      <trkpt lat="45.40384" lon="6.3553">
        <ele>1686.74</ele>
        <time>2013-08-09T15:26:21Z</time>
      </trkpt>
      <trkpt lat="45.40371" lon="6.35506">
        <ele>1681.1</ele>
        <time>2013-08-09T15:26:25Z</time>
      </trkpt>
      <trkpt lat="45.40351" lon="6.35498">
        <ele>1674.21</ele>
        <time>2013-08-09T15:26:31Z</time>
      </trkpt>
      <trkpt lat="45.40331" lon="6.35492">
        <ele>1670.6</ele>
        <time>2013-08-09T15:26:37Z</time>
      </trkpt>
      <trkpt lat="45.4031" lon="6.35491">
        <ele>1667.98</ele>
        <time>2013-08-09T15:26:45Z</time>
      </trkpt>
      <trkpt lat="45.40309" lon="6.35463">
        <ele>1666.57</ele>
        <time>2013-08-09T15:26:52Z</time>
      </trkpt>
      <trkpt lat="45.40296" lon="6.35438">
        <ele>1664.32</ele>
        <time>2013-08-09T15:26:59Z</time>
      </trkpt>
      <trkpt lat="45.40277" lon="6.35425">
        <ele>1659.04</ele>
        <time>2013-08-09T15:27:02Z</time>
      </trkpt>
      <trkpt lat="45.40256" lon="6.35413">
        <ele>1650.53</ele>
        <time>2013-08-09T15:27:06Z</time>
      </trkpt>
      <trkpt lat="45.40238" lon="6.35416">
        <ele>1643.98</ele>
        <time>2013-08-09T15:27:10Z</time>
      </trkpt>
      <trkpt lat="45.40219" lon="6.35413">
        <ele>1639.37</ele>
        <time>2013-08-09T15:27:22Z</time>
      </trkpt>
      <trkpt lat="45.40198" lon="6.35394">
        <ele>1637.89</ele>
        <time>2013-08-09T15:27:47Z</time>
      </trkpt>
      <trkpt lat="45.40178" lon="6.35382">
        <ele>1637.42</ele>
        <time>2013-08-09T15:27:53Z</time>
      </trkpt>
      <trkpt lat="45.40161" lon="6.35371">
        <ele>1636.23</ele>
        <time>2013-08-09T15:27:57Z</time>
      </trkpt>
      <trkpt lat="45.40139" lon="6.35354">
        <ele>1633.68</ele>
        <time>2013-08-09T15:28:02Z</time>
      </trkpt>
      <trkpt lat="45.40122" lon="6.35337">
        <ele>1629.06</ele>
        <time>2013-08-09T15:28:05Z</time>
      </trkpt>
      <trkpt lat="45.40104" lon="6.35326">
        <ele>1623.11</ele>
        <time>2013-08-09T15:28:08Z</time>
      </trkpt>
      <trkpt lat="45.40087" lon="6.35307">
        <ele>1615.22</ele>
        <time>2013-08-09T15:28:35Z</time>
      </trkpt>
      <trkpt lat="45.40073" lon="6.3529">
        <ele>1614.41</ele>
        <time>2013-08-09T15:28:40Z</time>
      </trkpt>
      <trkpt lat="45.4006" lon="6.35271">
        <ele>1610.81</ele>
        <time>2013-08-09T15:28:44Z</time>
      </trkpt>
      <trkpt lat="45.40047" lon="6.35254">
        <ele>1607.69</ele>
        <time>2013-08-09T15:28:47Z</time>
      </trkpt>
      <trkpt lat="45.40034" lon="6.35236">
        <ele>1603.98</ele>
        <time>2013-08-09T15:28:52Z</time>
      </trkpt>
      <trkpt lat="45.40014" lon="6.35233">
        <ele>1602.31</ele>
        <time>2013-08-09T15:29:00Z</time>
      </trkpt>
      <trkpt lat="45.39996" lon="6.35223">
        <ele>1601.46</ele>
        <time>2013-08-09T15:29:07Z</time>
      </trkpt>
      <trkpt lat="45.39978" lon="6.35217">
        <ele>1600.45</ele>
        <time>2013-08-09T15:29:16Z</time>
      </trkpt>
      <trkpt lat="45.39958" lon="6.35212">
        <ele>1601.09</ele>
        <time>2013-08-09T15:30:16Z</time>
      </trkpt>
      <trkpt lat="45.39939" lon="6.35213">
        <ele>1600.23</ele>
        <time>2013-08-09T15:30:28Z</time>
      </trkpt>
      <trkpt lat="45.39919" lon="6.35211">
        <ele>1599.19</ele>
        <time>2013-08-09T15:30:36Z</time>
      </trkpt>
      <trkpt lat="45.399" lon="6.35202">
        <ele>1597.99</ele>
        <time>2013-08-09T15:30:46Z</time>
      </trkpt>
      <trkpt lat="45.39883" lon="6.3519">
        <ele>1596.95</ele>
        <time>2013-08-09T15:30:57Z</time>
      </trkpt>
      <trkpt lat="45.39877" lon="6.35164">
        <ele>1595.12</ele>
        <time>2013-08-09T15:31:08Z</time>
      </trkpt>
      <trkpt lat="45.39871" lon="6.3514">
        <ele>1592.47</ele>
        <time>2013-08-09T15:31:21Z</time>
      </trkpt>
      <trkpt lat="45.39863" lon="6.35115">
        <ele>1589.71</ele>
        <time>2013-08-09T15:31:26Z</time>
      </trkpt>
      <trkpt lat="45.39852" lon="6.35091">
        <ele>1584.79</ele>
        <time>2013-08-09T15:31:32Z</time>
      </trkpt>
      <trkpt lat="45.39838" lon="6.35071">
        <ele>1583.39</ele>
        <time>2013-08-09T15:31:40Z</time>
      </trkpt>
      <trkpt lat="45.3982" lon="6.35056">
        <ele>1583.13</ele>
        <time>2013-08-09T15:31:48Z</time>
      </trkpt>
      <trkpt lat="45.39809" lon="6.35034">
        <ele>1583.08</ele>
        <time>2013-08-09T15:31:58Z</time>
      </trkpt>
      <trkpt lat="45.39796" lon="6.35013">
        <ele>1583.66</ele>
        <time>2013-08-09T15:32:07Z</time>
      </trkpt>
      <trkpt lat="45.3978" lon="6.34997">
        <ele>1583.75</ele>
        <time>2013-08-09T15:32:16Z</time>
      </trkpt>
      <trkpt lat="45.39766" lon="6.34981">
        <ele>1583.82</ele>
        <time>2013-08-09T15:32:26Z</time>
      </trkpt>
      <trkpt lat="45.39751" lon="6.34964">
        <ele>1584.39</ele>
        <time>2013-08-09T15:32:36Z</time>
      </trkpt>
      <trkpt lat="45.39736" lon="6.34943">
        <ele>1585.16</ele>
        <time>2013-08-09T15:32:46Z</time>
      </trkpt>
      <trkpt lat="45.39721" lon="6.34927">
        <ele>1585.49</ele>
        <time>2013-08-09T15:32:51Z</time>
      </trkpt>
      <trkpt lat="45.39706" lon="6.3491">
        <ele>1585.38</ele>
        <time>2013-08-09T15:32:55Z</time>
      </trkpt>
      <trkpt lat="45.39699" lon="6.34882">
        <ele>1583.26</ele>
        <time>2013-08-09T15:37:48Z</time>
      </trkpt>
      <trkpt lat="45.39703" lon="6.34856">
        <ele>1582.94</ele>
        <time>2013-08-09T15:37:53Z</time>
      </trkpt>
      <trkpt lat="45.39704" lon="6.34827">
        <ele>1581.42</ele>
        <time>2013-08-09T15:37:57Z</time>
      </trkpt>
      <trkpt lat="45.39711" lon="6.34797">
        <ele>1578.95</ele>
        <time>2013-08-09T15:38:03Z</time>
      </trkpt>
      <trkpt lat="45.3972" lon="6.34772">
        <ele>1576.41</ele>
        <time>2013-08-09T15:38:09Z</time>
      </trkpt>
      <trkpt lat="45.39729" lon="6.34746">
        <ele>1574.83</ele>
        <time>2013-08-09T15:38:16Z</time>
      </trkpt>
      <trkpt lat="45.39738" lon="6.34716">
        <ele>1571.32</ele>
        <time>2013-08-09T15:38:21Z</time>
      </trkpt>
      <trkpt lat="45.39747" lon="6.34692">
        <ele>1568.26</ele>
        <time>2013-08-09T15:38:24Z</time>
      </trkpt>
      <trkpt lat="45.3976" lon="6.34668">
        <ele>1563.49</ele>
        <time>2013-08-09T15:38:28Z</time>
      </trkpt>
      <trkpt lat="45.39774" lon="6.34651">
        <ele>1558.55</ele>
        <time>2013-08-09T15:38:33Z</time>
      </trkpt>
      <trkpt lat="45.39761" lon="6.3463">
        <ele>1552.14</ele>
        <time>2013-08-09T15:39:03Z</time>
      </trkpt>
      <trkpt lat="45.3974" lon="6.34626">
        <ele>1546.05</ele>
        <time>2013-08-09T15:39:28Z</time>
      </trkpt>
      <trkpt lat="45.39723" lon="6.34617">
        <ele>1545.27</ele>
        <time>2013-08-09T15:39:39Z</time>
      </trkpt>
      <trkpt lat="45.39713" lon="6.34592">
        <ele>1544.4</ele>
        <time>2013-08-09T15:39:46Z</time>
      </trkpt>
      <trkpt lat="45.39693" lon="6.3458">
        <ele>1542.21</ele>
        <time>2013-08-09T15:39:54Z</time>
      </trkpt>
      <trkpt lat="45.39672" lon="6.34565">
        <ele>1538.18</ele>
        <time>2013-08-09T15:39:58Z</time>
      </trkpt>
      <trkpt lat="45.39654" lon="6.34558">
        <ele>1535.23</ele>
        <time>2013-08-09T15:40:01Z</time>
      </trkpt>
      <trkpt lat="45.39632" lon="6.34554">
        <ele>1531.86</ele>
        <time>2013-08-09T15:40:05Z</time>
      </trkpt>
      <trkpt lat="45.39615" lon="6.3454">
        <ele>1529.07</ele>
        <time>2013-08-09T15:40:09Z</time>
      </trkpt>
      <trkpt lat="45.39602" lon="6.3452">
        <ele>1525.52</ele>
        <time>2013-08-09T15:40:13Z</time>
      </trkpt>
      <trkpt lat="45.39585" lon="6.34502">
        <ele>1520.82</ele>
        <time>2013-08-09T15:40:19Z</time>
      </trkpt>
      <trkpt lat="45.3957" lon="6.34482">
        <ele>1517.42</ele>
        <time>2013-08-09T15:40:24Z</time>
      </trkpt>
      <trkpt lat="45.39557" lon="6.34462">
        <ele>1513.66</ele>
        <time>2013-08-09T15:40:28Z</time>
      </trkpt>
      <trkpt lat="45.39537" lon="6.34446">
        <ele>1508.63</ele>
        <time>2013-08-09T15:40:32Z</time>
      </trkpt>
      <trkpt lat="45.39514" lon="6.34436">
        <ele>1503.81</ele>
        <time>2013-08-09T15:40:36Z</time>
      </trkpt>
      <trkpt lat="45.39496" lon="6.34423">
        <ele>1497.8</ele>
        <time>2013-08-09T15:40:40Z</time>
      </trkpt>
      <trkpt lat="45.39483" lon="6.34406">
        <ele>1491.81</ele>
        <time>2013-08-09T15:40:44Z</time>
      </trkpt>
      <trkpt lat="45.39468" lon="6.34422">
        <ele>1485.53</ele>
        <time>2013-08-09T15:41:09Z</time>
      </trkpt>
      <trkpt lat="45.39455" lon="6.34425">
        <ele>1480.96</ele>
        <time>2013-08-09T15:42:59Z</time>
      </trkpt>
      <trkpt lat="45.39438" lon="6.34438">
        <ele>1478.85</ele>
        <time>2013-08-09T15:43:37Z</time>
      </trkpt>
      <trkpt lat="45.3942" lon="6.34445">
        <ele>1478.17</ele>
        <time>2013-08-09T15:43:42Z</time>
      </trkpt>
      <trkpt lat="45.39401" lon="6.34451">
        <ele>1477.44</ele>
        <time>2013-08-09T15:43:48Z</time>
      </trkpt>
      <trkpt lat="45.39384" lon="6.34457">
        <ele>1476.83</ele>
        <time>2013-08-09T15:43:54Z</time>
      </trkpt>
      <trkpt lat="45.39366" lon="6.34472">
        <ele>1475.68</ele>
        <time>2013-08-09T15:44:03Z</time>
      </trkpt>
      <trkpt lat="45.39349" lon="6.34486">
        <ele>1474.39</ele>
        <time>2013-08-09T15:44:13Z</time>
      </trkpt>
      <trkpt lat="45.3933" lon="6.34484">
        <ele>1473.03</ele>
        <time>2013-08-09T15:44:24Z</time>
      </trkpt>
      <trkpt lat="45.39312" lon="6.3448">
        <ele>1471.42</ele>
        <time>2013-08-09T15:44:36Z</time>
      </trkpt>
      <trkpt lat="45.39294" lon="6.3447">
        <ele>1469.59</ele>
        <time>2013-08-09T15:44:41Z</time>
      </trkpt>
      <trkpt lat="45.39276" lon="6.34468">
        <ele>1468.06</ele>
        <time>2013-08-09T15:44:46Z</time>
      </trkpt>
      <trkpt lat="45.39267" lon="6.34492">
        <ele>1463.7</ele>
        <time>2013-08-09T15:45:03Z</time>
      </trkpt>
      <trkpt lat="45.39249" lon="6.34497">
        <ele>1458.46</ele>
        <time>2013-08-09T15:45:28Z</time>
      </trkpt>
      <trkpt lat="45.39231" lon="6.34489">
        <ele>1456.3</ele>
        <time>2013-08-09T15:45:47Z</time>
      </trkpt>
      <trkpt lat="45.39213" lon="6.34488">
        <ele>1453.15</ele>
        <time>2013-08-09T15:46:12Z</time>
      </trkpt>
      <trkpt lat="45.39194" lon="6.34482">
        <ele>1451.73</ele>
        <time>2013-08-09T15:46:32Z</time>
      </trkpt>
      <trkpt lat="45.39174" lon="6.34481">
        <ele>1451.54</ele>
        <time>2013-08-09T15:46:43Z</time>
      </trkpt>
      <trkpt lat="45.39157" lon="6.34491">
        <ele>1450.12</ele>
        <time>2013-08-09T15:47:06Z</time>
      </trkpt>
      <trkpt lat="45.39139" lon="6.34495">
        <ele>1452.35</ele>
        <time>2013-08-09T15:47:39Z</time>
      </trkpt>
      <trkpt lat="45.39121" lon="6.34492">
        <ele>1453.08</ele>
        <time>2013-08-09T15:47:48Z</time>
      </trkpt>
      <trkpt lat="45.39103" lon="6.34493">
        <ele>1452.7</ele>
        <time>2013-08-09T15:48:03Z</time>
      </trkpt>
      <trkpt lat="45.39107" lon="6.34517">
        <ele>1454.27</ele>
        <time>2013-08-09T15:48:41Z</time>
      </trkpt>
      <trkpt lat="45.39105" lon="6.34546">
        <ele>1454.56</ele>
        <time>2013-08-09T15:48:51Z</time>
      </trkpt>
      <trkpt lat="45.39102" lon="6.34573">
        <ele>1455.2</ele>
        <time>2013-08-09T15:49:00Z</time>
      </trkpt>
      <trkpt lat="45.391" lon="6.34598">
        <ele>1456.64</ele>
        <time>2013-08-09T15:49:13Z</time>
      </trkpt>
      <trkpt lat="45.39087" lon="6.34616">
        <ele>1457.99</ele>
        <time>2013-08-09T15:49:28Z</time>
      </trkpt>
      <trkpt lat="45.39086" lon="6.34642">
        <ele>1461.44</ele>
        <time>2013-08-09T15:50:04Z</time>
      </trkpt>
      <trkpt lat="45.39076" lon="6.34663">
        <ele>1462.81</ele>
        <time>2013-08-09T15:50:19Z</time>
      </trkpt>
      <trkpt lat="45.39065" lon="6.34684">
        <ele>1464.42</ele>
        <time>2013-08-09T15:50:39Z</time>
      </trkpt>
      <trkpt lat="45.39048" lon="6.34695">
        <ele>1466.02</ele>
        <time>2013-08-09T15:50:51Z</time>
      </trkpt>
      <trkpt lat="45.39029" lon="6.34689">
        <ele>1466.79</ele>
        <time>2013-08-09T15:51:02Z</time>
      </trkpt>
      <trkpt lat="45.3901" lon="6.34701">
        <ele>1466.9</ele>
        <time>2013-08-09T15:51:10Z</time>
      </trkpt>
      <trkpt lat="45.38991" lon="6.34702">
        <ele>1467.1</ele>
        <time>2013-08-09T15:51:18Z</time>
      </trkpt>
      <trkpt lat="45.38973" lon="6.347">
        <ele>1467.34</ele>
        <time>2013-08-09T15:51:26Z</time>
      </trkpt>
      <trkpt lat="45.38954" lon="6.34697">
        <ele>1467.61</ele>
        <time>2013-08-09T15:51:34Z</time>
      </trkpt>
      <trkpt lat="45.38936" lon="6.34684">
        <ele>1467.84</ele>
        <time>2013-08-09T15:51:42Z</time>
      </trkpt>
      <trkpt lat="45.38921" lon="6.34669">
        <ele>1468.19</ele>
        <time>2013-08-09T15:51:51Z</time>
      </trkpt>
      <trkpt lat="45.38902" lon="6.34663">
        <ele>1468.81</ele>
        <time>2013-08-09T15:51:57Z</time>
      </trkpt>
      <trkpt lat="45.38883" lon="6.34651">
        <ele>1468.97</ele>
        <time>2013-08-09T15:52:04Z</time>
      </trkpt>
      <trkpt lat="45.38866" lon="6.3464">
        <ele>1468.17</ele>
        <time>2013-08-09T15:52:11Z</time>
      </trkpt>
      <trkpt lat="45.38847" lon="6.34628">
        <ele>1466.81</ele>
        <time>2013-08-09T15:52:18Z</time>
      </trkpt>
      <trkpt lat="45.3883" lon="6.34618">
        <ele>1465.12</ele>
        <time>2013-08-09T15:52:31Z</time>
      </trkpt>
      <trkpt lat="45.38815" lon="6.34604">
        <ele>1464.06</ele>
        <time>2013-08-09T15:52:42Z</time>
      </trkpt>
      <trkpt lat="45.38797" lon="6.34595">
        <ele>1463.23</ele>
        <time>2013-08-09T15:52:49Z</time>
      </trkpt>
      <trkpt lat="45.38781" lon="6.34581">
        <ele>1459.45</ele>
        <time>2013-08-09T15:53:14Z</time>
      </trkpt>
      <trkpt lat="45.38772" lon="6.34558">
        <ele>1457.53</ele>
        <time>2013-08-09T15:53:50Z</time>
      </trkpt>
      <trkpt lat="45.38765" lon="6.34534">
        <ele>1457.04</ele>
        <time>2013-08-09T15:54:11Z</time>
      </trkpt>
      <trkpt lat="45.38754" lon="6.34511">
        <ele>1457.59</ele>
        <time>2013-08-09T15:54:19Z</time>
      </trkpt>
      <trkpt lat="45.38738" lon="6.34493">
        <ele>1457.62</ele>
        <time>2013-08-09T15:54:25Z</time>
      </trkpt>
      <trkpt lat="45.38719" lon="6.34492">
        <ele>1457.65</ele>
        <time>2013-08-09T15:54:33Z</time>
      </trkpt>
      <trkpt lat="45.38704" lon="6.34473">
        <ele>1455.98</ele>
        <time>2013-08-09T15:54:47Z</time>
      </trkpt>
      <trkpt lat="45.38691" lon="6.34456">
        <ele>1453.66</ele>
        <time>2013-08-09T15:54:57Z</time>
      </trkpt>
      <trkpt lat="45.38672" lon="6.34452">
        <ele>1450.33</ele>
        <time>2013-08-09T15:55:08Z</time>
      </trkpt>
      <trkpt lat="45.38655" lon="6.34437">
        <ele>1448.55</ele>
        <time>2013-08-09T15:55:14Z</time>
      </trkpt>
      <trkpt lat="45.38639" lon="6.34424">
        <ele>1446.95</ele>
        <time>2013-08-09T15:55:20Z</time>
      </trkpt>
      <trkpt lat="45.3862" lon="6.34417">
        <ele>1444.74</ele>
        <time>2013-08-09T15:55:27Z</time>
      </trkpt>
      <trkpt lat="45.38602" lon="6.3441">
        <ele>1442.49</ele>
        <time>2013-08-09T15:55:34Z</time>
      </trkpt>
      <trkpt lat="45.38583" lon="6.34406">
        <ele>1440.33</ele>
        <time>2013-08-09T15:55:43Z</time>
      </trkpt>
      <trkpt lat="45.38565" lon="6.34391">
        <ele>1439.34</ele>
        <time>2013-08-09T15:55:48Z</time>
      </trkpt>
      <trkpt lat="45.38549" lon="6.34379">
        <ele>1437.63</ele>
        <time>2013-08-09T15:55:57Z</time>
      </trkpt>
      <trkpt lat="45.38532" lon="6.34366">
        <ele>1434.67</ele>
        <time>2013-08-09T15:56:01Z</time>
      </trkpt>
      <trkpt lat="45.38513" lon="6.34368">
        <ele>1431.43</ele>
        <time>2013-08-09T15:56:07Z</time>
      </trkpt>
      <trkpt lat="45.38494" lon="6.34375">
        <ele>1428.94</ele>
        <time>2013-08-09T15:56:17Z</time>
      </trkpt>
      <trkpt lat="45.38476" lon="6.3438">
        <ele>1427.6</ele>
        <time>2013-08-09T15:56:26Z</time>
      </trkpt>
      <trkpt lat="45.38457" lon="6.34379">
        <ele>1424.94</ele>
        <time>2013-08-09T15:56:51Z</time>
      </trkpt>
      <trkpt lat="45.38439" lon="6.34372">
        <ele>1425.15</ele>
        <time>2013-08-09T15:57:04Z</time>
      </trkpt>
      <trkpt lat="45.38429" lon="6.34349">
        <ele>1425.22</ele>
        <time>2013-08-09T15:57:11Z</time>
      </trkpt>
      <trkpt lat="45.38413" lon="6.34337">
        <ele>1424.8</ele>
        <time>2013-08-09T15:57:21Z</time>
      </trkpt>
      <trkpt lat="45.38395" lon="6.34344">
        <ele>1424.24</ele>
        <time>2013-08-09T15:57:48Z</time>
      </trkpt>
      <trkpt lat="45.38376" lon="6.34344">
        <ele>1425.15</ele>
        <time>2013-08-09T15:58:09Z</time>
      </trkpt>
      <trkpt lat="45.3836" lon="6.34332">
        <ele>1426.4</ele>
        <time>2013-08-09T15:58:25Z</time>
      </trkpt>
      <trkpt lat="45.38343" lon="6.34322">
        <ele>1431.14</ele>
        <time>2013-08-09T15:59:12Z</time>
      </trkpt>
      <trkpt lat="45.38327" lon="6.34308">
        <ele>1434.33</ele>
        <time>2013-08-09T15:59:50Z</time>
      </trkpt>
      <trkpt lat="45.38316" lon="6.34282">
        <ele>1435.16</ele>
        <time>2013-08-09T15:59:55Z</time>
      </trkpt>
      <trkpt lat="45.38303" lon="6.34264">
        <ele>1436.84</ele>
        <time>2013-08-09T16:00:02Z</time>
      </trkpt>
      <trkpt lat="45.38285" lon="6.34255">
        <ele>1436.9</ele>
        <time>2013-08-09T16:00:12Z</time>
      </trkpt>
      <trkpt lat="45.38268" lon="6.34245">
        <ele>1434.22</ele>
        <time>2013-08-09T16:01:10Z</time>
      </trkpt>
      <trkpt lat="45.38264" lon="6.34217">
        <ele>1432.71</ele>
        <time>2013-08-09T16:02:16Z</time>
      </trkpt>
      <trkpt lat="45.38259" lon="6.34192">
        <ele>1432.53</ele>
        <time>2013-08-09T16:02:22Z</time>
      </trkpt>
      <trkpt lat="45.38252" lon="6.34168">
        <ele>1432.19</ele>
        <time>2013-08-09T16:02:27Z</time>
      </trkpt>
      <trkpt lat="45.38244" lon="6.34192">
        <ele>1429.7</ele>
        <time>2013-08-09T16:02:41Z</time>
      </trkpt>
      <trkpt lat="45.38243" lon="6.34222">
        <ele>1424.82</ele>
        <time>2013-08-09T16:02:46Z</time>
      </trkpt>
      <trkpt lat="45.3824" lon="6.34249">
        <ele>1417.71</ele>
        <time>2013-08-09T16:02:50Z</time>
      </trkpt>
      <trkpt lat="45.38229" lon="6.3427">
        <ele>1411.33</ele>
        <time>2013-08-09T16:02:55Z</time>
      </trkpt>
      <trkpt lat="45.38212" lon="6.34281">
        <ele>1402.67</ele>
        <time>2013-08-09T16:03:20Z</time>
      </trkpt>
      <trkpt lat="45.38192" lon="6.34285">
        <ele>1397.74</ele>
        <time>2013-08-09T16:03:29Z</time>
      </trkpt>
      <trkpt lat="45.38174" lon="6.34275">
        <ele>1390</ele>
        <time>2013-08-09T16:03:34Z</time>
      </trkpt>
      <trkpt lat="45.38156" lon="6.34269">
        <ele>1384.65</ele>
        <time>2013-08-09T16:03:38Z</time>
      </trkpt>
      <trkpt lat="45.38134" lon="6.34266">
        <ele>1379.03</ele>
        <time>2013-08-09T16:03:43Z</time>
      </trkpt>
      <trkpt lat="45.38114" lon="6.34264">
        <ele>1374.63</ele>
        <time>2013-08-09T16:03:48Z</time>
      </trkpt>
      <trkpt lat="45.38096" lon="6.34261">
        <ele>1371.82</ele>
        <time>2013-08-09T16:03:53Z</time>
      </trkpt>
      <trkpt lat="45.38077" lon="6.34266">
        <ele>1370.75</ele>
        <time>2013-08-09T16:04:18Z</time>
      </trkpt>
      <trkpt lat="45.38066" lon="6.34245">
        <ele>1370.29</ele>
        <time>2013-08-09T16:04:37Z</time>
      </trkpt>
      <trkpt lat="45.38058" lon="6.3422">
        <ele>1371.25</ele>
        <time>2013-08-09T16:04:54Z</time>
      </trkpt>
      <trkpt lat="45.38048" lon="6.34199">
        <ele>1374.8</ele>
        <time>2013-08-09T16:05:14Z</time>
      </trkpt>
      <trkpt lat="45.38048" lon="6.34173">
        <ele>1377.83</ele>
        <time>2013-08-09T16:05:44Z</time>
      </trkpt>
      <trkpt lat="45.38037" lon="6.34152">
        <ele>1378.46</ele>
        <time>2013-08-09T16:06:06Z</time>
      </trkpt>
      <trkpt lat="45.38031" lon="6.34127">
        <ele>1381.51</ele>
        <time>2013-08-09T16:06:40Z</time>
      </trkpt>
      <trkpt lat="45.38031" lon="6.34098">
        <ele>1382.21</ele>
        <time>2013-08-09T16:06:48Z</time>
      </trkpt>
      <trkpt lat="45.38028" lon="6.34073">
        <ele>1382.57</ele>
        <time>2013-08-09T16:06:55Z</time>
      </trkpt>
      <trkpt lat="45.38021" lon="6.34047">
        <ele>1382.82</ele>
        <time>2013-08-09T16:07:03Z</time>
      </trkpt>
      <trkpt lat="45.38016" lon="6.3402">
        <ele>1382.91</ele>
        <time>2013-08-09T16:07:11Z</time>
      </trkpt>
      <trkpt lat="45.38021" lon="6.33993">
        <ele>1383.28</ele>
        <time>2013-08-09T16:07:20Z</time>
      </trkpt>
      <trkpt lat="45.38039" lon="6.33989">
        <ele>1384.46</ele>
        <time>2013-08-09T16:07:30Z</time>
      </trkpt>
      <trkpt lat="45.38021" lon="6.33995">
        <ele>1386.88</ele>
        <time>2013-08-09T16:08:36Z</time>
      </trkpt>
      <trkpt lat="45.38033" lon="6.33976">
        <ele>1387.37</ele>
        <time>2013-08-09T16:08:55Z</time>
      </trkpt>
      <trkpt lat="45.38036" lon="6.33949">
        <ele>1387.29</ele>
        <time>2013-08-09T16:09:03Z</time>
      </trkpt>
      <trkpt lat="45.38024" lon="6.33927">
        <ele>1386.53</ele>
        <time>2013-08-09T16:09:12Z</time>
      </trkpt>
      <trkpt lat="45.38006" lon="6.33926">
        <ele>1381.7</ele>
        <time>2013-08-09T16:09:39Z</time>
      </trkpt>
      <trkpt lat="45.37992" lon="6.33908">
        <ele>1379.82</ele>
        <time>2013-08-09T16:09:46Z</time>
      </trkpt>
      <trkpt lat="45.37984" lon="6.33885">
        <ele>1375.47</ele>
        <time>2013-08-09T16:09:51Z</time>
      </trkpt>
      <trkpt lat="45.37974" lon="6.33862">
        <ele>1366.53</ele>
        <time>2013-08-09T16:09:55Z</time>
      </trkpt>
      <trkpt lat="45.37967" lon="6.33838">
        <ele>1358.85</ele>
        <time>2013-08-09T16:09:59Z</time>
      </trkpt>
      <trkpt lat="45.3796" lon="6.33812">
        <ele>1352.58</ele>
        <time>2013-08-09T16:10:03Z</time>
      </trkpt>
      <trkpt lat="45.37962" lon="6.33787">
        <ele>1348.38</ele>
        <time>2013-08-09T16:10:07Z</time>
      </trkpt>
      <trkpt lat="45.37974" lon="6.33762">
        <ele>1345.05</ele>
        <time>2013-08-09T16:10:13Z</time>
      </trkpt>
      <trkpt lat="45.3796" lon="6.33744">
        <ele>1343.61</ele>
        <time>2013-08-09T16:10:18Z</time>
      </trkpt>
      <trkpt lat="45.37973" lon="6.33721">
        <ele>1339.08</ele>
        <time>2013-08-09T16:11:13Z</time>
      </trkpt>
      <trkpt lat="45.37992" lon="6.33716">
        <ele>1337.54</ele>
        <time>2013-08-09T16:11:22Z</time>
      </trkpt>
      <trkpt lat="45.38011" lon="6.33719">
        <ele>1335.63</ele>
        <time>2013-08-09T16:11:30Z</time>
      </trkpt>
      <trkpt lat="45.38029" lon="6.33735">
        <ele>1333.54</ele>
        <time>2013-08-09T16:11:38Z</time>
      </trkpt>
      <trkpt lat="45.38034" lon="6.33761">
        <ele>1331.56</ele>
        <time>2013-08-09T16:11:44Z</time>
      </trkpt>
      <trkpt lat="45.38053" lon="6.33777">
        <ele>1329.05</ele>
        <time>2013-08-09T16:11:52Z</time>
      </trkpt>
      <trkpt lat="45.38073" lon="6.33779">
        <ele>1327.66</ele>
        <time>2013-08-09T16:11:56Z</time>
      </trkpt>
      <trkpt lat="45.38092" lon="6.33784">
        <ele>1326.17</ele>
        <time>2013-08-09T16:12:00Z</time>
      </trkpt>
      <trkpt lat="45.38107" lon="6.33765">
        <ele>1320.78</ele>
        <time>2013-08-09T16:12:11Z</time>
      </trkpt>
      <trkpt lat="45.38124" lon="6.3378">
        <ele>1314.34</ele>
        <time>2013-08-09T16:12:22Z</time>
      </trkpt>
      <trkpt lat="45.38198" lon="6.33784">
        <ele>1300.35</ele>
        <time>2013-08-09T16:13:16Z</time>
      </trkpt>
      <trkpt lat="45.38215" lon="6.33799">
        <ele>1298.51</ele>
        <time>2013-08-09T16:13:33Z</time>
      </trkpt>
      <trkpt lat="45.38234" lon="6.33801">
        <ele>1297.62</ele>
        <time>2013-08-09T16:13:38Z</time>
      </trkpt>
      <trkpt lat="45.38254" lon="6.33797">
        <ele>1296.09</ele>
        <time>2013-08-09T16:13:45Z</time>
      </trkpt>
      <trkpt lat="45.38267" lon="6.33816">
        <ele>1294.57</ele>
        <time>2013-08-09T16:13:52Z</time>
      </trkpt>
      <trkpt lat="45.38279" lon="6.33835">
        <ele>1293.06</ele>
        <time>2013-08-09T16:13:58Z</time>
      </trkpt>
      <trkpt lat="45.38296" lon="6.33847">
        <ele>1291.47</ele>
        <time>2013-08-09T16:14:04Z</time>
      </trkpt>
      <trkpt lat="45.38311" lon="6.33861">
        <ele>1289.96</ele>
        <time>2013-08-09T16:14:10Z</time>
      </trkpt>
      <trkpt lat="45.38324" lon="6.33881">
        <ele>1288.01</ele>
        <time>2013-08-09T16:14:17Z</time>
      </trkpt>
      <trkpt lat="45.38341" lon="6.33894">
        <ele>1286.48</ele>
        <time>2013-08-09T16:14:28Z</time>
      </trkpt>
      <trkpt lat="45.3836" lon="6.33899">
        <ele>1286.11</ele>
        <time>2013-08-09T16:14:40Z</time>
      </trkpt>
      <trkpt lat="45.38373" lon="6.33919">
        <ele>1285.08</ele>
        <time>2013-08-09T16:15:00Z</time>
      </trkpt>
      <trkpt lat="45.38381" lon="6.33942">
        <ele>1283.54</ele>
        <time>2013-08-09T16:15:09Z</time>
      </trkpt>
      <trkpt lat="45.38392" lon="6.33966">
        <ele>1283.23</ele>
        <time>2013-08-09T16:15:20Z</time>
      </trkpt>
      <trkpt lat="45.38406" lon="6.33982">
        <ele>1283.78</ele>
        <time>2013-08-09T16:15:28Z</time>
      </trkpt>
      <trkpt lat="45.38418" lon="6.34002">
        <ele>1284.63</ele>
        <time>2013-08-09T16:15:41Z</time>
      </trkpt>
      <trkpt lat="45.38426" lon="6.34026">
        <ele>1285.13</ele>
        <time>2013-08-09T16:15:54Z</time>
      </trkpt>
      <trkpt lat="45.38435" lon="6.3405">
        <ele>1286.39</ele>
        <time>2013-08-09T16:16:06Z</time>
      </trkpt>
      <trkpt lat="45.38447" lon="6.34074">
        <ele>1287.21</ele>
        <time>2013-08-09T16:16:17Z</time>
      </trkpt>
      <trkpt lat="45.38434" lon="6.34093">
        <ele>1287.79</ele>
        <time>2013-08-09T16:16:34Z</time>
      </trkpt>
      <trkpt lat="45.3844" lon="6.34117">
        <ele>1291.73</ele>
        <time>2013-08-09T16:16:54Z</time>
      </trkpt>
      <trkpt lat="45.38458" lon="6.34126">
        <ele>1293.83</ele>
        <time>2013-08-09T16:17:10Z</time>
      </trkpt>
      <trkpt lat="45.38475" lon="6.34112">
        <ele>1295.36</ele>
        <time>2013-08-09T16:17:23Z</time>
      </trkpt>
      <trkpt lat="45.38493" lon="6.34104">
        <ele>1296.43</ele>
        <time>2013-08-09T16:17:33Z</time>
      </trkpt>
      <trkpt lat="45.38509" lon="6.34089">
        <ele>1296.51</ele>
        <time>2013-08-09T16:17:38Z</time>
      </trkpt>
      <trkpt lat="45.38527" lon="6.34085">
        <ele>1296.77</ele>
        <time>2013-08-09T16:17:47Z</time>
      </trkpt>
      <trkpt lat="45.38543" lon="6.34071">
        <ele>1297.62</ele>
        <time>2013-08-09T16:17:57Z</time>
      </trkpt>
      <trkpt lat="45.38562" lon="6.34073">
        <ele>1297.84</ele>
        <time>2013-08-09T16:18:08Z</time>
      </trkpt>
      <trkpt lat="45.38577" lon="6.34089">
        <ele>1297.31</ele>
        <time>2013-08-09T16:18:18Z</time>
      </trkpt>
      <trkpt lat="45.3859" lon="6.34107">
        <ele>1294.72</ele>
        <time>2013-08-09T16:18:50Z</time>
      </trkpt>
      <trkpt lat="45.38607" lon="6.34095">
        <ele>1294.87</ele>
        <time>2013-08-09T16:18:59Z</time>
      </trkpt>
      <trkpt lat="45.38625" lon="6.34084">
        <ele>1295.7</ele>
        <time>2013-08-09T16:19:09Z</time>
      </trkpt>
      <trkpt lat="45.38644" lon="6.34079">
        <ele>1297.89</ele>
        <time>2013-08-09T16:19:38Z</time>
      </trkpt>
      <trkpt lat="45.3866" lon="6.34092">
        <ele>1298.04</ele>
        <time>2013-08-09T16:19:46Z</time>
      </trkpt>
      <trkpt lat="45.38675" lon="6.34109">
        <ele>1298.21</ele>
        <time>2013-08-09T16:19:59Z</time>
      </trkpt>
      <trkpt lat="45.38692" lon="6.34123">
        <ele>1298.56</ele>
        <time>2013-08-09T16:20:07Z</time>
      </trkpt>
      <trkpt lat="45.38711" lon="6.34129">
        <ele>1300.51</ele>
        <time>2013-08-09T16:20:21Z</time>
      </trkpt>
      <trkpt lat="45.38728" lon="6.34138">
        <ele>1300.91</ele>
        <time>2013-08-09T16:20:26Z</time>
      </trkpt>
      <trkpt lat="45.38746" lon="6.34146">
        <ele>1301.57</ele>
        <time>2013-08-09T16:20:37Z</time>
      </trkpt>
      <trkpt lat="45.38766" lon="6.34152">
        <ele>1301.45</ele>
        <time>2013-08-09T16:20:44Z</time>
      </trkpt>
      <trkpt lat="45.38784" lon="6.3416">
        <ele>1301.12</ele>
        <time>2013-08-09T16:20:52Z</time>
      </trkpt>
      <trkpt lat="45.38797" lon="6.34177">
        <ele>1299.64</ele>
        <time>2013-08-09T16:21:03Z</time>
      </trkpt>
      <trkpt lat="45.38814" lon="6.3419">
        <ele>1298.14</ele>
        <time>2013-08-09T16:21:13Z</time>
      </trkpt>
      <trkpt lat="45.38833" lon="6.34204">
        <ele>1297.42</ele>
        <time>2013-08-09T16:21:21Z</time>
      </trkpt>
      <trkpt lat="45.38851" lon="6.34218">
        <ele>1296.38</ele>
        <time>2013-08-09T16:21:29Z</time>
      </trkpt>
      <trkpt lat="45.3887" lon="6.34209">
        <ele>1295.76</ele>
        <time>2013-08-09T16:21:54Z</time>
      </trkpt>
      <trkpt lat="45.38888" lon="6.34212">
        <ele>1295.51</ele>
        <time>2013-08-09T16:22:02Z</time>
      </trkpt>
      <trkpt lat="45.38906" lon="6.3422">
        <ele>1294.99</ele>
        <time>2013-08-09T16:22:09Z</time>
      </trkpt>
      <trkpt lat="45.38922" lon="6.34232">
        <ele>1294.43</ele>
        <time>2013-08-09T16:22:37Z</time>
      </trkpt>
      <trkpt lat="45.3894" lon="6.34224">
        <ele>1295.23</ele>
        <time>2013-08-09T16:23:02Z</time>
      </trkpt>
      <trkpt lat="45.38956" lon="6.34237">
        <ele>1294.68</ele>
        <time>2013-08-09T16:23:56Z</time>
      </trkpt>
      <trkpt lat="45.38975" lon="6.34234">
        <ele>1300.37</ele>
        <time>2013-08-09T16:24:33Z</time>
      </trkpt>
      <trkpt lat="45.3899" lon="6.34248">
        <ele>1306.5</ele>
        <time>2013-08-09T16:25:32Z</time>
      </trkpt>
      <trkpt lat="45.38975" lon="6.34263">
        <ele>1309.15</ele>
        <time>2013-08-09T16:26:28Z</time>
      </trkpt>
      <trkpt lat="45.38977" lon="6.34289">
        <ele>1313.73</ele>
        <time>2013-08-09T16:27:25Z</time>
      </trkpt>
      <trkpt lat="45.38989" lon="6.34269">
        <ele>1324.61</ele>
        <time>2013-08-09T16:28:53Z</time>
      </trkpt>
      <trkpt lat="45.39008" lon="6.34268">
        <ele>1330.8</ele>
        <time>2013-08-09T16:31:09Z</time>
      </trkpt>
      <trkpt lat="45.39027" lon="6.34268">
        <ele>1337.53</ele>
        <time>2013-08-09T16:32:56Z</time>
      </trkpt>
      <trkpt lat="45.39046" lon="6.34264">
        <ele>1340.25</ele>
        <time>2013-08-09T16:33:13Z</time>
      </trkpt>
      <trkpt lat="45.39064" lon="6.34258">
        <ele>1341.97</ele>
        <time>2013-08-09T16:33:22Z</time>
      </trkpt>
      <trkpt lat="45.39082" lon="6.34254">
        <ele>1343.39</ele>
        <time>2013-08-09T16:33:31Z</time>
      </trkpt>
      <trkpt lat="45.39101" lon="6.34259">
        <ele>1343.49</ele>
        <time>2013-08-09T16:33:40Z</time>
      </trkpt>
      <trkpt lat="45.39117" lon="6.34274">
        <ele>1343.41</ele>
        <time>2013-08-09T16:33:52Z</time>
      </trkpt>
      <trkpt lat="45.39131" lon="6.34257">
        <ele>1340.56</ele>
        <time>2013-08-09T16:34:18Z</time>
      </trkpt>
      <trkpt lat="45.39143" lon="6.34238">
        <ele>1338.21</ele>
        <time>2013-08-09T16:34:28Z</time>
      </trkpt>
      <trkpt lat="45.39149" lon="6.34214">
        <ele>1338.35</ele>
        <time>2013-08-09T16:34:57Z</time>
      </trkpt>
      <trkpt lat="45.39164" lon="6.34192">
        <ele>1337.38</ele>
        <time>2013-08-09T16:35:05Z</time>
      </trkpt>
      <trkpt lat="45.39182" lon="6.34185">
        <ele>1337.22</ele>
        <time>2013-08-09T16:35:32Z</time>
      </trkpt>
      <trkpt lat="45.39194" lon="6.34165">
        <ele>1338.63</ele>
        <time>2013-08-09T16:35:59Z</time>
      </trkpt>
      <trkpt lat="45.39201" lon="6.34141">
        <ele>1343.17</ele>
        <time>2013-08-09T16:36:24Z</time>
      </trkpt>
      <trkpt lat="45.39207" lon="6.34116">
        <ele>1348.96</ele>
        <time>2013-08-09T16:37:16Z</time>
      </trkpt>
      <trkpt lat="45.39203" lon="6.34091">
        <ele>1360</ele>
        <time>2013-08-09T16:37:54Z</time>
      </trkpt>
      <trkpt lat="45.39187" lon="6.34075">
        <ele>1361.08</ele>
        <time>2013-08-09T16:38:16Z</time>
      </trkpt>
      <trkpt lat="45.39172" lon="6.34057">
        <ele>1360.72</ele>
        <time>2013-08-09T16:38:26Z</time>
      </trkpt>
      <trkpt lat="45.39159" lon="6.34039">
        <ele>1360.92</ele>
        <time>2013-08-09T16:38:37Z</time>
      </trkpt>
      <trkpt lat="45.3914" lon="6.34034">
        <ele>1361.05</ele>
        <time>2013-08-09T16:38:48Z</time>
      </trkpt>
      <trkpt lat="45.39128" lon="6.34014">
        <ele>1361.19</ele>
        <time>2013-08-09T16:39:14Z</time>
      </trkpt>
      <trkpt lat="45.39145" lon="6.34005">
        <ele>1360.7</ele>
        <time>2013-08-09T16:39:58Z</time>
      </trkpt>
      <trkpt lat="45.39161" lon="6.3399">
        <ele>1360.97</ele>
        <time>2013-08-09T16:40:07Z</time>
      </trkpt>
      <trkpt lat="45.39176" lon="6.33975">
        <ele>1361.17</ele>
        <time>2013-08-09T16:40:12Z</time>
      </trkpt>
      <trkpt lat="45.39186" lon="6.3395">
        <ele>1361.23</ele>
        <time>2013-08-09T16:40:19Z</time>
      </trkpt>
      <trkpt lat="45.39204" lon="6.33943">
        <ele>1361.11</ele>
        <time>2013-08-09T16:40:26Z</time>
      </trkpt>
      <trkpt lat="45.39226" lon="6.3394">
        <ele>1360.35</ele>
        <time>2013-08-09T16:40:31Z</time>
      </trkpt>
      <trkpt lat="45.39244" lon="6.33945">
        <ele>1359.38</ele>
        <time>2013-08-09T16:40:35Z</time>
      </trkpt>
      <trkpt lat="45.39261" lon="6.33955">
        <ele>1359.1</ele>
        <time>2013-08-09T16:40:39Z</time>
      </trkpt>
      <trkpt lat="45.39279" lon="6.33948">
        <ele>1359.11</ele>
        <time>2013-08-09T16:40:43Z</time>
      </trkpt>
      <trkpt lat="45.39298" lon="6.33936">
        <ele>1359.15</ele>
        <time>2013-08-09T16:40:49Z</time>
      </trkpt>
      <trkpt lat="45.39315" lon="6.33927">
        <ele>1359.19</ele>
        <time>2013-08-09T16:40:55Z</time>
      </trkpt>
      <trkpt lat="45.39333" lon="6.33913">
        <ele>1359.45</ele>
        <time>2013-08-09T16:41:02Z</time>
      </trkpt>
      <trkpt lat="45.39351" lon="6.33898">
        <ele>1359.47</ele>
        <time>2013-08-09T16:41:09Z</time>
      </trkpt>
      <trkpt lat="45.3937" lon="6.33912">
        <ele>1359.14</ele>
        <time>2013-08-09T16:41:15Z</time>
      </trkpt>
      <trkpt lat="45.39382" lon="6.33931">
        <ele>1358.42</ele>
        <time>2013-08-09T16:41:20Z</time>
      </trkpt>
      <trkpt lat="45.39398" lon="6.33943">
        <ele>1357.45</ele>
        <time>2013-08-09T16:41:28Z</time>
      </trkpt>
      <trkpt lat="45.39419" lon="6.33949">
        <ele>1356.79</ele>
        <time>2013-08-09T16:41:37Z</time>
      </trkpt>
      <trkpt lat="45.39437" lon="6.33955">
        <ele>1356.6</ele>
        <time>2013-08-09T16:41:43Z</time>
      </trkpt>
      <trkpt lat="45.39452" lon="6.33942">
        <ele>1356.2</ele>
        <time>2013-08-09T16:41:49Z</time>
      </trkpt>
      <trkpt lat="45.39468" lon="6.33925">
        <ele>1355.32</ele>
        <time>2013-08-09T16:41:56Z</time>
      </trkpt>
      <trkpt lat="45.3949" lon="6.33933">
        <ele>1353.01</ele>
        <time>2013-08-09T16:42:00Z</time>
      </trkpt>
      <trkpt lat="45.39508" lon="6.33954">
        <ele>1350.45</ele>
        <time>2013-08-09T16:42:04Z</time>
      </trkpt>
      <trkpt lat="45.3952" lon="6.33974">
        <ele>1348.3</ele>
        <time>2013-08-09T16:42:07Z</time>
      </trkpt>
      <trkpt lat="45.3954" lon="6.33979">
        <ele>1346.59</ele>
        <time>2013-08-09T16:42:12Z</time>
      </trkpt>
      <trkpt lat="45.3956" lon="6.33984">
        <ele>1345.88</ele>
        <time>2013-08-09T16:42:18Z</time>
      </trkpt>
      <trkpt lat="45.39579" lon="6.33986">
        <ele>1344.24</ele>
        <time>2013-08-09T16:42:23Z</time>
      </trkpt>
      <trkpt lat="45.39601" lon="6.33984">
        <ele>1343.46</ele>
        <time>2013-08-09T16:42:29Z</time>
      </trkpt>
      <trkpt lat="45.39619" lon="6.33979">
        <ele>1343.3</ele>
        <time>2013-08-09T16:42:33Z</time>
      </trkpt>
      <trkpt lat="45.3964" lon="6.33985">
        <ele>1342</ele>
        <time>2013-08-09T16:42:37Z</time>
      </trkpt>
      <trkpt lat="45.3966" lon="6.34002">
        <ele>1340.54</ele>
        <time>2013-08-09T16:42:40Z</time>
      </trkpt>
      <trkpt lat="45.3968" lon="6.34014">
        <ele>1339.05</ele>
        <time>2013-08-09T16:42:43Z</time>
      </trkpt>
      <trkpt lat="45.39699" lon="6.34021">
        <ele>1336.95</ele>
        <time>2013-08-09T16:42:46Z</time>
      </trkpt>
      <trkpt lat="45.3972" lon="6.34024">
        <ele>1334.39</ele>
        <time>2013-08-09T16:42:49Z</time>
      </trkpt>
      <trkpt lat="45.39742" lon="6.3403">
        <ele>1332.16</ele>
        <time>2013-08-09T16:42:52Z</time>
      </trkpt>
      <trkpt lat="45.39762" lon="6.34034">
        <ele>1329.73</ele>
        <time>2013-08-09T16:42:55Z</time>
      </trkpt>
      <trkpt lat="45.39782" lon="6.34037">
        <ele>1327.49</ele>
        <time>2013-08-09T16:42:58Z</time>
      </trkpt>
      <trkpt lat="45.39804" lon="6.34044">
        <ele>1326.09</ele>
        <time>2013-08-09T16:43:01Z</time>
      </trkpt>
      <trkpt lat="45.39825" lon="6.34054">
        <ele>1325.75</ele>
        <time>2013-08-09T16:43:04Z</time>
      </trkpt>
      <trkpt lat="45.39848" lon="6.34069">
        <ele>1324.28</ele>
        <time>2013-08-09T16:43:07Z</time>
      </trkpt>
      <trkpt lat="45.40132" lon="6.341">
        <ele>1304.94</ele>
        <time>2013-08-09T16:43:51Z</time>
      </trkpt>
      <trkpt lat="45.40133" lon="6.34074">
        <ele>1298.77</ele>
        <time>2013-08-09T16:43:56Z</time>
      </trkpt>
      <trkpt lat="45.40148" lon="6.34055">
        <ele>1292.49</ele>
        <time>2013-08-09T16:44:04Z</time>
      </trkpt>
      <trkpt lat="45.4013" lon="6.34048">
        <ele>1287.61</ele>
        <time>2013-08-09T16:44:41Z</time>
      </trkpt>
      <trkpt lat="45.40148" lon="6.34039">
        <ele>1287.7</ele>
        <time>2013-08-09T16:46:38Z</time>
      </trkpt>
      <trkpt lat="45.40165" lon="6.34029">
        <ele>1288.43</ele>
        <time>2013-08-09T16:46:59Z</time>
      </trkpt>
      <trkpt lat="45.4018" lon="6.34049">
        <ele>1288.64</ele>
        <time>2013-08-09T16:47:06Z</time>
      </trkpt>
      <trkpt lat="45.40187" lon="6.34074">
        <ele>1288.67</ele>
        <time>2013-08-09T16:47:10Z</time>
      </trkpt>
      <trkpt lat="45.40194" lon="6.34105">
        <ele>1288.06</ele>
        <time>2013-08-09T16:47:14Z</time>
      </trkpt>
      <trkpt lat="45.40204" lon="6.34135">
        <ele>1287.14</ele>
        <time>2013-08-09T16:47:18Z</time>
      </trkpt>
      <trkpt lat="45.40218" lon="6.34156">
        <ele>1286.93</ele>
        <time>2013-08-09T16:47:22Z</time>
      </trkpt>
      <trkpt lat="45.40234" lon="6.34176">
        <ele>1287.07</ele>
        <time>2013-08-09T16:47:26Z</time>
      </trkpt>
      <trkpt lat="45.40251" lon="6.34191">
        <ele>1287.52</ele>
        <time>2013-08-09T16:47:30Z</time>
      </trkpt>
      <trkpt lat="45.40256" lon="6.34166">
        <ele>1287.38</ele>
        <time>2013-08-09T16:47:39Z</time>
      </trkpt>
      <trkpt lat="45.40239" lon="6.34178">
        <ele>1286.25</ele>
        <time>2013-08-09T16:48:16Z</time>
      </trkpt>
      <trkpt lat="45.40223" lon="6.3416">
        <ele>1286.26</ele>
        <time>2013-08-09T16:48:22Z</time>
      </trkpt>
      <trkpt lat="45.40208" lon="6.34144">
        <ele>1286.58</ele>
        <time>2013-08-09T16:48:31Z</time>
      </trkpt>
      <trkpt lat="45.40206" lon="6.34172">
        <ele>1286.63</ele>
        <time>2013-08-09T16:48:42Z</time>
      </trkpt>
      <trkpt lat="45.4021" lon="6.34199">
        <ele>1286.56</ele>
        <time>2013-08-09T16:48:52Z</time>
      </trkpt>
      <trkpt lat="45.40222" lon="6.3422">
        <ele>1286.69</ele>
        <time>2013-08-09T16:49:01Z</time>
      </trkpt>
      <trkpt lat="45.40237" lon="6.34238">
        <ele>1286.99</ele>
        <time>2013-08-09T16:49:11Z</time>
      </trkpt>
      <trkpt lat="45.40252" lon="6.34254">
        <ele>1287.81</ele>
        <time>2013-08-09T16:49:21Z</time>
      </trkpt>
      <trkpt lat="45.40263" lon="6.34276">
        <ele>1288.85</ele>
        <time>2013-08-09T16:49:30Z</time>
      </trkpt>
      <trkpt lat="45.4027" lon="6.343">
        <ele>1289.78</ele>
        <time>2013-08-09T16:49:39Z</time>
      </trkpt>
      <trkpt lat="45.40287" lon="6.34313">
        <ele>1290.96</ele>
        <time>2013-08-09T16:49:49Z</time>
      </trkpt>
      <trkpt lat="45.40306" lon="6.34313">
        <ele>1292.22</ele>
        <time>2013-08-09T16:49:58Z</time>
      </trkpt>
      <trkpt lat="45.40326" lon="6.34313">
        <ele>1293.7</ele>
        <time>2013-08-09T16:50:08Z</time>
      </trkpt>
      <trkpt lat="45.40345" lon="6.34312">
        <ele>1295.14</ele>
        <time>2013-08-09T16:50:18Z</time>
      </trkpt>
      <trkpt lat="45.40365" lon="6.34312">
        <ele>1296.66</ele>
        <time>2013-08-09T16:50:28Z</time>
      </trkpt>
      <trkpt lat="45.40383" lon="6.34303">
        <ele>1298.03</ele>
        <time>2013-08-09T16:50:37Z</time>
      </trkpt>
      <trkpt lat="45.40393" lon="6.34279">
        <ele>1299.89</ele>
        <time>2013-08-09T16:50:47Z</time>
      </trkpt>
      <trkpt lat="45.4041" lon="6.34268">
        <ele>1302.09</ele>
        <time>2013-08-09T16:50:59Z</time>
      </trkpt>
      <trkpt lat="45.40425" lon="6.34282">
        <ele>1303.93</ele>
        <time>2013-08-09T16:51:10Z</time>
      </trkpt>
      <trkpt lat="45.40435" lon="6.34304">
        <ele>1305.75</ele>
        <time>2013-08-09T16:51:22Z</time>
      </trkpt>
      <trkpt lat="45.40448" lon="6.34322">
        <ele>1307.55</ele>
        <time>2013-08-09T16:51:33Z</time>
      </trkpt>
      <trkpt lat="45.40466" lon="6.34332">
        <ele>1309.54</ele>
        <time>2013-08-09T16:51:45Z</time>
      </trkpt>
      <trkpt lat="45.40484" lon="6.34337">
        <ele>1311.73</ele>
        <time>2013-08-09T16:51:57Z</time>
      </trkpt>
      <trkpt lat="45.40503" lon="6.3434">
        <ele>1314.08</ele>
        <time>2013-08-09T16:52:09Z</time>
      </trkpt>
      <trkpt lat="45.40522" lon="6.34342">
        <ele>1316.41</ele>
        <time>2013-08-09T16:52:21Z</time>
      </trkpt>
      <trkpt lat="45.40541" lon="6.34346">
        <ele>1318.53</ele>
        <time>2013-08-09T16:52:33Z</time>
      </trkpt>
      <trkpt lat="45.40559" lon="6.34355">
        <ele>1320.55</ele>
        <time>2013-08-09T16:52:44Z</time>
      </trkpt>
      <trkpt lat="45.40575" lon="6.34366">
        <ele>1322.46</ele>
        <time>2013-08-09T16:52:55Z</time>
      </trkpt>
      <trkpt lat="45.40593" lon="6.34377">
        <ele>1324.47</ele>
        <time>2013-08-09T16:53:07Z</time>
      </trkpt>
      <trkpt lat="45.40611" lon="6.34387">
        <ele>1326.57</ele>
        <time>2013-08-09T16:53:19Z</time>
      </trkpt>
      <trkpt lat="45.40629" lon="6.34397">
        <ele>1328.87</ele>
        <time>2013-08-09T16:53:31Z</time>
      </trkpt>
      <trkpt lat="45.40646" lon="6.3441">
        <ele>1331.05</ele>
        <time>2013-08-09T16:53:43Z</time>
      </trkpt>
      <trkpt lat="45.40662" lon="6.34423">
        <ele>1332.8</ele>
        <time>2013-08-09T16:53:54Z</time>
      </trkpt>
      <trkpt lat="45.40679" lon="6.34434">
        <ele>1335.13</ele>
        <time>2013-08-09T16:54:06Z</time>
      </trkpt>
      <trkpt lat="45.40697" lon="6.34446">
        <ele>1337.64</ele>
        <time>2013-08-09T16:54:18Z</time>
      </trkpt>
      <trkpt lat="45.40714" lon="6.34456">
        <ele>1339.6</ele>
        <time>2013-08-09T16:54:28Z</time>
      </trkpt>
      <trkpt lat="45.40731" lon="6.34462">
        <ele>1341.48</ele>
        <time>2013-08-09T16:54:38Z</time>
      </trkpt>
      <trkpt lat="45.40751" lon="6.34467">
        <ele>1343.58</ele>
        <time>2013-08-09T16:54:50Z</time>
      </trkpt>
      <trkpt lat="45.40769" lon="6.34471">
        <ele>1345.39</ele>
        <time>2013-08-09T16:55:01Z</time>
      </trkpt>
      <trkpt lat="45.40789" lon="6.34476">
        <ele>1347.38</ele>
        <time>2013-08-09T16:55:13Z</time>
      </trkpt>
      <trkpt lat="45.40808" lon="6.34481">
        <ele>1349.61</ele>
        <time>2013-08-09T16:55:24Z</time>
      </trkpt>
      <trkpt lat="45.40824" lon="6.34494">
        <ele>1351.54</ele>
        <time>2013-08-09T16:55:34Z</time>
      </trkpt>
      <trkpt lat="45.40821" lon="6.3452">
        <ele>1353.23</ele>
        <time>2013-08-09T16:55:45Z</time>
      </trkpt>
      <trkpt lat="45.40803" lon="6.34527">
        <ele>1354.8</ele>
        <time>2013-08-09T16:55:55Z</time>
      </trkpt>
      <trkpt lat="45.40785" lon="6.34529">
        <ele>1356.56</ele>
        <time>2013-08-09T16:56:05Z</time>
      </trkpt>
      <trkpt lat="45.40766" lon="6.34533">
        <ele>1358</ele>
        <time>2013-08-09T16:56:14Z</time>
      </trkpt>
      <trkpt lat="45.40747" lon="6.34536">
        <ele>1359.31</ele>
        <time>2013-08-09T16:56:22Z</time>
      </trkpt>
      <trkpt lat="45.40729" lon="6.34539">
        <ele>1360.58</ele>
        <time>2013-08-09T16:56:29Z</time>
      </trkpt>
      <trkpt lat="45.4071" lon="6.34541">
        <ele>1362.29</ele>
        <time>2013-08-09T16:56:38Z</time>
      </trkpt>
      <trkpt lat="45.40691" lon="6.34543">
        <ele>1364.31</ele>
        <time>2013-08-09T16:56:48Z</time>
      </trkpt>
      <trkpt lat="45.40675" lon="6.34556">
        <ele>1366.24</ele>
        <time>2013-08-09T16:56:58Z</time>
      </trkpt>
      <trkpt lat="45.40669" lon="6.34582">
        <ele>1367.92</ele>
        <time>2013-08-09T16:57:07Z</time>
      </trkpt>
      <trkpt lat="45.40658" lon="6.34606">
        <ele>1369.6</ele>
        <time>2013-08-09T16:57:17Z</time>
      </trkpt>
      <trkpt lat="45.40645" lon="6.34624">
        <ele>1370.92</ele>
        <time>2013-08-09T16:57:26Z</time>
      </trkpt>
      <trkpt lat="45.40628" lon="6.34637">
        <ele>1372.42</ele>
        <time>2013-08-09T16:57:36Z</time>
      </trkpt>
      <trkpt lat="45.40609" lon="6.34642">
        <ele>1374.05</ele>
        <time>2013-08-09T16:57:46Z</time>
      </trkpt>
      <trkpt lat="45.40591" lon="6.34649">
        <ele>1375.66</ele>
        <time>2013-08-09T16:57:55Z</time>
      </trkpt>
      <trkpt lat="45.40573" lon="6.34657">
        <ele>1377.49</ele>
        <time>2013-08-09T16:58:04Z</time>
      </trkpt>
      <trkpt lat="45.40556" lon="6.34664">
        <ele>1379.18</ele>
        <time>2013-08-09T16:58:13Z</time>
      </trkpt>
      <trkpt lat="45.40537" lon="6.3467">
        <ele>1381.19</ele>
        <time>2013-08-09T16:58:24Z</time>
      </trkpt>
      <trkpt lat="45.40518" lon="6.34671">
        <ele>1383.48</ele>
        <time>2013-08-09T16:58:36Z</time>
      </trkpt>
      <trkpt lat="45.405" lon="6.34668">
        <ele>1385.78</ele>
        <time>2013-08-09T16:58:48Z</time>
      </trkpt>
      <trkpt lat="45.4048" lon="6.34662">
        <ele>1387.91</ele>
        <time>2013-08-09T16:59:00Z</time>
      </trkpt>
      <trkpt lat="45.40462" lon="6.34658">
        <ele>1389.93</ele>
        <time>2013-08-09T16:59:11Z</time>
      </trkpt>
      <trkpt lat="45.40444" lon="6.34651">
        <ele>1391.94</ele>
        <time>2013-08-09T16:59:22Z</time>
      </trkpt>
      <trkpt lat="45.40426" lon="6.34647">
        <ele>1393.29</ele>
        <time>2013-08-09T16:59:30Z</time>
      </trkpt>
      <trkpt lat="45.40407" lon="6.34643">
        <ele>1394.4</ele>
        <time>2013-08-09T16:59:38Z</time>
      </trkpt>
      <trkpt lat="45.40387" lon="6.3464">
        <ele>1395.5</ele>
        <time>2013-08-09T16:59:46Z</time>
      </trkpt>
      <trkpt lat="45.40368" lon="6.34637">
        <ele>1396.97</ele>
        <time>2013-08-09T16:59:55Z</time>
      </trkpt>
      <trkpt lat="45.40348" lon="6.34637">
        <ele>1398.86</ele>
        <time>2013-08-09T17:00:05Z</time>
      </trkpt>
      <trkpt lat="45.4033" lon="6.34642">
        <ele>1400.73</ele>
        <time>2013-08-09T17:00:15Z</time>
      </trkpt>
      <trkpt lat="45.40324" lon="6.34667">
        <ele>1402.47</ele>
        <time>2013-08-09T17:00:25Z</time>
      </trkpt>
      <trkpt lat="45.40343" lon="6.34673">
        <ele>1404.09</ele>
        <time>2013-08-09T17:00:35Z</time>
      </trkpt>
      <trkpt lat="45.40363" lon="6.34667">
        <ele>1405.82</ele>
        <time>2013-08-09T17:00:45Z</time>
      </trkpt>
      <trkpt lat="45.40382" lon="6.34671">
        <ele>1407.64</ele>
        <time>2013-08-09T17:00:55Z</time>
      </trkpt>
      <trkpt lat="45.40399" lon="6.34684">
        <ele>1409.31</ele>
        <time>2013-08-09T17:01:04Z</time>
      </trkpt>
      <trkpt lat="45.40416" lon="6.34698">
        <ele>1411.61</ele>
        <time>2013-08-09T17:01:15Z</time>
      </trkpt>
      <trkpt lat="45.40432" lon="6.34709">
        <ele>1413.79</ele>
        <time>2013-08-09T17:01:25Z</time>
      </trkpt>
      <trkpt lat="45.40447" lon="6.34725">
        <ele>1416.35</ele>
        <time>2013-08-09T17:01:38Z</time>
      </trkpt>
      <trkpt lat="45.40463" lon="6.34738">
        <ele>1418.21</ele>
        <time>2013-08-09T17:01:48Z</time>
      </trkpt>
      <trkpt lat="45.40479" lon="6.34752">
        <ele>1419.52</ele>
        <time>2013-08-09T17:01:57Z</time>
      </trkpt>
      <trkpt lat="45.40496" lon="6.34766">
        <ele>1421.1</ele>
        <time>2013-08-09T17:02:07Z</time>
      </trkpt>
      <trkpt lat="45.40512" lon="6.34779">
        <ele>1422.52</ele>
        <time>2013-08-09T17:02:16Z</time>
      </trkpt>
      <trkpt lat="45.40528" lon="6.34793">
        <ele>1424.4</ele>
        <time>2013-08-09T17:02:27Z</time>
      </trkpt>
      <trkpt lat="45.40544" lon="6.34806">
        <ele>1426.26</ele>
        <time>2013-08-09T17:02:38Z</time>
      </trkpt>
      <trkpt lat="45.40559" lon="6.3482">
        <ele>1428.83</ele>
        <time>2013-08-09T17:02:50Z</time>
      </trkpt>
      <trkpt lat="45.40575" lon="6.34835">
        <ele>1430.64</ele>
        <time>2013-08-09T17:03:00Z</time>
      </trkpt>
      <trkpt lat="45.40592" lon="6.34847">
        <ele>1433.89</ele>
        <time>2013-08-09T17:03:12Z</time>
      </trkpt>
      <trkpt lat="45.4061" lon="6.34855">
        <ele>1436.63</ele>
        <time>2013-08-09T17:03:23Z</time>
      </trkpt>
      <trkpt lat="45.40628" lon="6.34865">
        <ele>1438.6</ele>
        <time>2013-08-09T17:03:32Z</time>
      </trkpt>
      <trkpt lat="45.40647" lon="6.34866">
        <ele>1440.38</ele>
        <time>2013-08-09T17:03:46Z</time>
      </trkpt>
      <trkpt lat="45.40666" lon="6.34871">
        <ele>1442.05</ele>
        <time>2013-08-09T17:03:56Z</time>
      </trkpt>
      <trkpt lat="45.40684" lon="6.34883">
        <ele>1443.26</ele>
        <time>2013-08-09T17:04:07Z</time>
      </trkpt>
      <trkpt lat="45.407" lon="6.34897">
        <ele>1444.39</ele>
        <time>2013-08-09T17:04:17Z</time>
      </trkpt>
      <trkpt lat="45.40717" lon="6.34906">
        <ele>1445.1</ele>
        <time>2013-08-09T17:04:28Z</time>
      </trkpt>
      <trkpt lat="45.40734" lon="6.34918">
        <ele>1445.63</ele>
        <time>2013-08-09T17:04:38Z</time>
      </trkpt>
      <trkpt lat="45.4075" lon="6.34932">
        <ele>1446.43</ele>
        <time>2013-08-09T17:04:49Z</time>
      </trkpt>
      <trkpt lat="45.40762" lon="6.34951">
        <ele>1447.96</ele>
        <time>2013-08-09T17:05:02Z</time>
      </trkpt>
      <trkpt lat="45.40779" lon="6.34963">
        <ele>1449.5</ele>
        <time>2013-08-09T17:05:11Z</time>
      </trkpt>
      <trkpt lat="45.40796" lon="6.34973">
        <ele>1451.7</ele>
        <time>2013-08-09T17:05:22Z</time>
      </trkpt>
      <trkpt lat="45.40815" lon="6.34982">
        <ele>1453.37</ele>
        <time>2013-08-09T17:05:35Z</time>
      </trkpt>
      <trkpt lat="45.40834" lon="6.34988">
        <ele>1454.96</ele>
        <time>2013-08-09T17:05:46Z</time>
      </trkpt>
      <trkpt lat="45.40852" lon="6.34995">
        <ele>1456.22</ele>
        <time>2013-08-09T17:05:57Z</time>
      </trkpt>
      <trkpt lat="45.4087" lon="6.35002">
        <ele>1457.37</ele>
        <time>2013-08-09T17:06:08Z</time>
      </trkpt>
      <trkpt lat="45.40888" lon="6.35009">
        <ele>1458.46</ele>
        <time>2013-08-09T17:06:19Z</time>
      </trkpt>
      <trkpt lat="45.40907" lon="6.35016">
        <ele>1459.91</ele>
        <time>2013-08-09T17:06:31Z</time>
      </trkpt>
      <trkpt lat="45.40926" lon="6.3502">
        <ele>1460.92</ele>
        <time>2013-08-09T17:06:40Z</time>
      </trkpt>
      <trkpt lat="45.40944" lon="6.35026">
        <ele>1461.64</ele>
        <time>2013-08-09T17:06:46Z</time>
      </trkpt>
      <trkpt lat="45.40963" lon="6.35032">
        <ele>1462.52</ele>
        <time>2013-08-09T17:06:53Z</time>
      </trkpt>
      <trkpt lat="45.40981" lon="6.3504">
        <ele>1463.87</ele>
        <time>2013-08-09T17:07:01Z</time>
      </trkpt>
      <trkpt lat="45.40997" lon="6.35053">
        <ele>1465.81</ele>
        <time>2013-08-09T17:07:12Z</time>
      </trkpt>
      <trkpt lat="45.41014" lon="6.35067">
        <ele>1469.74</ele>
        <time>2013-08-09T17:07:29Z</time>
      </trkpt>
      <trkpt lat="45.4103" lon="6.3508">
        <ele>1472.24</ele>
        <time>2013-08-09T17:07:42Z</time>
      </trkpt>
      <trkpt lat="45.41046" lon="6.35093">
        <ele>1473.9</ele>
        <time>2013-08-09T17:07:56Z</time>
      </trkpt>
      <trkpt lat="45.41061" lon="6.35109">
        <ele>1475.83</ele>
        <time>2013-08-09T17:08:10Z</time>
      </trkpt>
      <trkpt lat="45.41077" lon="6.35121">
        <ele>1478.45</ele>
        <time>2013-08-09T17:08:25Z</time>
      </trkpt>
      <trkpt lat="45.41097" lon="6.35127">
        <ele>1481.62</ele>
        <time>2013-08-09T17:08:39Z</time>
      </trkpt>
      <trkpt lat="45.41115" lon="6.35133">
        <ele>1483.3</ele>
        <time>2013-08-09T17:08:51Z</time>
      </trkpt>
      <trkpt lat="45.41133" lon="6.35142">
        <ele>1484.4</ele>
        <time>2013-08-09T17:09:03Z</time>
      </trkpt>
      <trkpt lat="45.4115" lon="6.35151">
        <ele>1485.49</ele>
        <time>2013-08-09T17:09:15Z</time>
      </trkpt>
      <trkpt lat="45.41168" lon="6.35159">
        <ele>1486.93</ele>
        <time>2013-08-09T17:09:28Z</time>
      </trkpt>
      <trkpt lat="45.41182" lon="6.35177">
        <ele>1488.16</ele>
        <time>2013-08-09T17:09:40Z</time>
      </trkpt>
      <trkpt lat="45.41196" lon="6.35193">
        <ele>1489.32</ele>
        <time>2013-08-09T17:09:52Z</time>
      </trkpt>
      <trkpt lat="45.4121" lon="6.35211">
        <ele>1490.81</ele>
        <time>2013-08-09T17:10:03Z</time>
      </trkpt>
      <trkpt lat="45.41224" lon="6.3523">
        <ele>1492.09</ele>
        <time>2013-08-09T17:10:14Z</time>
      </trkpt>
      <trkpt lat="45.41236" lon="6.3525">
        <ele>1493.62</ele>
        <time>2013-08-09T17:10:25Z</time>
      </trkpt>
      <trkpt lat="45.41242" lon="6.35276">
        <ele>1495.1</ele>
        <time>2013-08-09T17:10:36Z</time>
      </trkpt>
      <trkpt lat="45.41246" lon="6.35302">
        <ele>1496.6</ele>
        <time>2013-08-09T17:10:47Z</time>
      </trkpt>
      <trkpt lat="45.4125" lon="6.35327">
        <ele>1498.19</ele>
        <time>2013-08-09T17:10:58Z</time>
      </trkpt>
      <trkpt lat="45.41254" lon="6.35354">
        <ele>1499.66</ele>
        <time>2013-08-09T17:11:09Z</time>
      </trkpt>
      <trkpt lat="45.41259" lon="6.3538">
        <ele>1501.24</ele>
        <time>2013-08-09T17:11:20Z</time>
      </trkpt>
      <trkpt lat="45.41263" lon="6.35405">
        <ele>1502.89</ele>
        <time>2013-08-09T17:11:31Z</time>
      </trkpt>
      <trkpt lat="45.41269" lon="6.3543">
        <ele>1504.6</ele>
        <time>2013-08-09T17:11:42Z</time>
      </trkpt>
      <trkpt lat="45.41275" lon="6.35454">
        <ele>1506.46</ele>
        <time>2013-08-09T17:11:51Z</time>
      </trkpt>
      <trkpt lat="45.41282" lon="6.35479">
        <ele>1509.09</ele>
        <time>2013-08-09T17:12:03Z</time>
      </trkpt>
      <trkpt lat="45.41291" lon="6.35503">
        <ele>1511.25</ele>
        <time>2013-08-09T17:12:16Z</time>
      </trkpt>
      <trkpt lat="45.41299" lon="6.35527">
        <ele>1512.93</ele>
        <time>2013-08-09T17:12:29Z</time>
      </trkpt>
      <trkpt lat="45.41308" lon="6.35549">
        <ele>1514.35</ele>
        <time>2013-08-09T17:12:41Z</time>
      </trkpt>
      <trkpt lat="45.41317" lon="6.35574">
        <ele>1515.97</ele>
        <time>2013-08-09T17:12:54Z</time>
      </trkpt>
      <trkpt lat="45.41324" lon="6.35599">
        <ele>1517.76</ele>
        <time>2013-08-09T17:13:07Z</time>
      </trkpt>
      <trkpt lat="45.41385" lon="6.35768">
        <ele>1526.48</ele>
        <time>2013-08-09T17:14:24Z</time>
      </trkpt>
      <trkpt lat="45.41397" lon="6.3579">
        <ele>1537.01</ele>
        <time>2013-08-09T17:14:41Z</time>
      </trkpt>
      <trkpt lat="45.41408" lon="6.35811">
        <ele>1534.99</ele>
        <time>2013-08-09T17:14:50Z</time>
      </trkpt>
      <trkpt lat="45.41421" lon="6.35829">
        <ele>1535.66</ele>
        <time>2013-08-09T17:15:00Z</time>
      </trkpt>
      <trkpt lat="45.41433" lon="6.3585">
        <ele>1535.8</ele>
        <time>2013-08-09T17:15:09Z</time>
      </trkpt>
      <trkpt lat="45.41451" lon="6.35859">
        <ele>1535.96</ele>
        <time>2013-08-09T17:15:16Z</time>
      </trkpt>
      <trkpt lat="45.41468" lon="6.35866">
        <ele>1536.24</ele>
        <time>2013-08-09T17:15:23Z</time>
      </trkpt>
      <trkpt lat="45.41485" lon="6.35882">
        <ele>1536.65</ele>
        <time>2013-08-09T17:15:32Z</time>
      </trkpt>
      <trkpt lat="45.41478" lon="6.35907">
        <ele>1537.14</ele>
        <time>2013-08-09T17:15:46Z</time>
      </trkpt>
      <trkpt lat="45.41475" lon="6.35934">
        <ele>1537.96</ele>
        <time>2013-08-09T17:15:58Z</time>
      </trkpt>
      <trkpt lat="45.41484" lon="6.35957">
        <ele>1540.16</ele>
        <time>2013-08-09T17:16:16Z</time>
      </trkpt>
      <trkpt lat="45.41499" lon="6.35973">
        <ele>1542.97</ele>
        <time>2013-08-09T17:16:35Z</time>
      </trkpt>
      <trkpt lat="45.41509" lon="6.35995">
        <ele>1546.29</ele>
        <time>2013-08-09T17:16:54Z</time>
      </trkpt>
      <trkpt lat="45.41521" lon="6.36015">
        <ele>1548.92</ele>
        <time>2013-08-09T17:17:09Z</time>
      </trkpt>
      <trkpt lat="45.41531" lon="6.36036">
        <ele>1551</ele>
        <time>2013-08-09T17:17:24Z</time>
      </trkpt>
      <trkpt lat="45.41539" lon="6.36059">
        <ele>1552.48</ele>
        <time>2013-08-09T17:17:37Z</time>
      </trkpt>
      <trkpt lat="45.41547" lon="6.36084">
        <ele>1553.88</ele>
        <time>2013-08-09T17:17:49Z</time>
      </trkpt>
      <trkpt lat="45.41551" lon="6.36109">
        <ele>1555.27</ele>
        <time>2013-08-09T17:18:00Z</time>
      </trkpt>
      <trkpt lat="45.4155" lon="6.36137">
        <ele>1556.69</ele>
        <time>2013-08-09T17:18:11Z</time>
      </trkpt>
      <trkpt lat="45.41543" lon="6.36162">
        <ele>1558.38</ele>
        <time>2013-08-09T17:18:25Z</time>
      </trkpt>
      <trkpt lat="45.41536" lon="6.36187">
        <ele>1559.96</ele>
        <time>2013-08-09T17:18:37Z</time>
      </trkpt>
      <trkpt lat="45.41525" lon="6.3621">
        <ele>1561.87</ele>
        <time>2013-08-09T17:18:48Z</time>
      </trkpt>
      <trkpt lat="45.4152" lon="6.36236">
        <ele>1564.13</ele>
        <time>2013-08-09T17:18:59Z</time>
      </trkpt>
      <trkpt lat="45.41517" lon="6.36263">
        <ele>1566</ele>
        <time>2013-08-09T17:19:10Z</time>
      </trkpt>
      <trkpt lat="45.41513" lon="6.36288">
        <ele>1567.26</ele>
        <time>2013-08-09T17:19:20Z</time>
      </trkpt>
      <trkpt lat="45.41527" lon="6.36309">
        <ele>1568.22</ele>
        <time>2013-08-09T17:19:28Z</time>
      </trkpt>
      <trkpt lat="45.41546" lon="6.36309">
        <ele>1569.55</ele>
        <time>2013-08-09T17:19:33Z</time>
      </trkpt>
      <trkpt lat="45.41565" lon="6.36295">
        <ele>1572.31</ele>
        <time>2013-08-09T17:19:38Z</time>
      </trkpt>
      <trkpt lat="45.4158" lon="6.3628">
        <ele>1573.77</ele>
        <time>2013-08-09T17:19:46Z</time>
      </trkpt>
      <trkpt lat="45.41598" lon="6.36268">
        <ele>1574.96</ele>
        <time>2013-08-09T17:19:55Z</time>
      </trkpt>
      <trkpt lat="45.41616" lon="6.36261">
        <ele>1576.01</ele>
        <time>2013-08-09T17:20:04Z</time>
      </trkpt>
      <trkpt lat="45.41636" lon="6.36268">
        <ele>1576.35</ele>
        <time>2013-08-09T17:20:10Z</time>
      </trkpt>
      <trkpt lat="45.41656" lon="6.36271">
        <ele>1576.68</ele>
        <time>2013-08-09T17:20:18Z</time>
      </trkpt>
      <trkpt lat="45.41675" lon="6.36272">
        <ele>1577.1</ele>
        <time>2013-08-09T17:20:25Z</time>
      </trkpt>
      <trkpt lat="45.41694" lon="6.36273">
        <ele>1577.6</ele>
        <time>2013-08-09T17:20:33Z</time>
      </trkpt>
      <trkpt lat="45.4171" lon="6.36257">
        <ele>1578.46</ele>
        <time>2013-08-09T17:20:42Z</time>
      </trkpt>
      <trkpt lat="45.41717" lon="6.36285">
        <ele>1578.45</ele>
        <time>2013-08-09T17:21:26Z</time>
      </trkpt>
      <trkpt lat="45.41736" lon="6.36286">
        <ele>1578.87</ele>
        <time>2013-08-09T17:21:35Z</time>
      </trkpt>
      <trkpt lat="45.41752" lon="6.3627">
        <ele>1580.33</ele>
        <time>2013-08-09T17:21:43Z</time>
      </trkpt>
      <trkpt lat="45.41768" lon="6.36257">
        <ele>1582.25</ele>
        <time>2013-08-09T17:21:52Z</time>
      </trkpt>
      <trkpt lat="45.41775" lon="6.36225">
        <ele>1583.59</ele>
        <time>2013-08-09T17:24:52Z</time>
      </trkpt>
      <trkpt lat="45.41786" lon="6.3625">
        <ele>1582.28</ele>
        <time>2013-08-09T17:24:53Z</time>
      </trkpt>
      <trkpt lat="45.41775" lon="6.36272">
        <ele>1581.29</ele>
        <time>2013-08-09T17:25:08Z</time>
      </trkpt>
      <trkpt lat="45.41769" lon="6.36296">
        <ele>1583.02</ele>
        <time>2013-08-09T17:25:16Z</time>
      </trkpt>
      <trkpt lat="45.41764" lon="6.36321">
        <ele>1584.94</ele>
        <time>2013-08-09T17:25:25Z</time>
      </trkpt>
      <trkpt lat="45.41766" lon="6.36348">
        <ele>1587.18</ele>
        <time>2013-08-09T17:25:38Z</time>
      </trkpt>
      <trkpt lat="45.41764" lon="6.36374">
        <ele>1589.18</ele>
        <time>2013-08-09T17:25:51Z</time>
      </trkpt>
      <trkpt lat="45.41756" lon="6.36399">
        <ele>1590.46</ele>
        <time>2013-08-09T17:26:03Z</time>
      </trkpt>
      <trkpt lat="45.41767" lon="6.36423">
        <ele>1591.77</ele>
        <time>2013-08-09T17:26:12Z</time>
      </trkpt>
      <trkpt lat="45.41784" lon="6.36437">
        <ele>1592.85</ele>
        <time>2013-08-09T17:26:20Z</time>
      </trkpt>
      <trkpt lat="45.41801" lon="6.36449">
        <ele>1593.76</ele>
        <time>2013-08-09T17:26:28Z</time>
      </trkpt>
      <trkpt lat="45.4182" lon="6.36447">
        <ele>1595.08</ele>
        <time>2013-08-09T17:26:38Z</time>
      </trkpt>
      <trkpt lat="45.41798" lon="6.36445">
        <ele>1599.68</ele>
        <time>2013-08-09T17:27:43Z</time>
      </trkpt>
      <trkpt lat="45.41779" lon="6.36426">
        <ele>1600.61</ele>
        <time>2013-08-09T17:27:47Z</time>
      </trkpt>
      <trkpt lat="45.41762" lon="6.36407">
        <ele>1600.21</ele>
        <time>2013-08-09T17:27:50Z</time>
      </trkpt>
      <trkpt lat="45.41762" lon="6.36377">
        <ele>1598.7</ele>
        <time>2013-08-09T17:27:54Z</time>
      </trkpt>
      <trkpt lat="45.41762" lon="6.3635">
        <ele>1598.14</ele>
        <time>2013-08-09T17:27:57Z</time>
      </trkpt>
      <trkpt lat="45.4176" lon="6.36324">
        <ele>1597.62</ele>
        <time>2013-08-09T17:28:00Z</time>
      </trkpt>
      <trkpt lat="45.41756" lon="6.36299">
        <ele>1595.73</ele>
        <time>2013-08-09T17:28:03Z</time>
      </trkpt>
      <trkpt lat="45.41755" lon="6.36269">
        <ele>1592.07</ele>
        <time>2013-08-09T17:28:08Z</time>
      </trkpt>
      <trkpt lat="45.41778" lon="6.36282">
        <ele>1585.21</ele>
        <time>2013-08-09T17:29:46Z</time>
      </trkpt>
      <trkpt lat="45.4176" lon="6.36282">
        <ele>1578.95</ele>
        <time>2013-08-09T17:30:41Z</time>
      </trkpt>
      <trkpt lat="45.41779" lon="6.3629">
        <ele>1591.59</ele>
        <time>2013-08-09T17:42:35Z</time>
      </trkpt>
      <trkpt lat="45.41797" lon="6.36291">
        <ele>1593.08</ele>
        <time>2013-08-09T17:42:43Z</time>
      </trkpt>
      <trkpt lat="45.41815" lon="6.36288">
        <ele>1598.11</ele>
        <time>2013-08-09T17:43:09Z</time>
      </trkpt>
      <trkpt lat="45.41826" lon="6.36268">
        <ele>1615.53</ele>
        <time>2013-08-09T17:44:36Z</time>
      </trkpt>
      <trkpt lat="45.41815" lon="6.36289">
        <ele>1623.94</ele>
        <time>2013-08-09T17:45:31Z</time>
      </trkpt>
      <trkpt lat="45.41804" lon="6.36268">
        <ele>1636.26</ele>
        <time>2013-08-09T17:48:00Z</time>
      </trkpt>
    </trkseg>
  </trk>
</gpx>